<?xml version="1.0" encoding="UTF-8" standalone="no" ?>
<gpx xmlns="http://www.topografix.com/GPX/1/1" xmlns:xsi="http://www.w3.org/2001/XMLSchema-instance" xsi:schemaLocation="http://www.topografix.com/GPX/1/1 http://www.topografix.com/GPX/1/1/gpx.xsd" version="1.1" creator="VisuGPX - https://www.visugpx.com">
  <metadata>
    <name>Bastille</name>
    <desc><![CDATA[Trace AlpineQuest 09/01/2021 15:20:43]]></desc>
  </metadata>
  <trk>
    <name><![CDATA[Bastille_1]]></name>
    <trkseg>
      <trkpt lat="45.19714" lon="5.73635">
        <ele>228.662</ele>
        <time>2021-01-09T14:20:43Z</time>
      </trkpt>
      <trkpt lat="45.19718" lon="5.73627">
        <ele>226.072</ele>
        <time>2021-01-09T14:20:50Z</time>
      </trkpt>
      <trkpt lat="45.19719" lon="5.73616">
        <ele>218.782</ele>
        <time>2021-01-09T14:20:56Z</time>
      </trkpt>
      <trkpt lat="45.19721" lon="5.73606">
        <ele>214.6</ele>
        <time>2021-01-09T14:21:01Z</time>
      </trkpt>
      <trkpt lat="45.19721" lon="5.73595">
        <ele>213.081</ele>
        <time>2021-01-09T14:21:06Z</time>
      </trkpt>
      <trkpt lat="45.19722" lon="5.73585">
        <ele>212.013</ele>
        <time>2021-01-09T14:21:11Z</time>
      </trkpt>
      <trkpt lat="45.19721" lon="5.73574">
        <ele>210.076</ele>
        <time>2021-01-09T14:21:16Z</time>
      </trkpt>
      <trkpt lat="45.19719" lon="5.73564">
        <ele>211.526</ele>
        <time>2021-01-09T14:21:21Z</time>
      </trkpt>
      <trkpt lat="45.19717" lon="5.73553">
        <ele>209.416</ele>
        <time>2021-01-09T14:21:26Z</time>
      </trkpt>
      <trkpt lat="45.19717" lon="5.73542">
        <ele>208.926</ele>
        <time>2021-01-09T14:21:31Z</time>
      </trkpt>
      <trkpt lat="45.19715" lon="5.7353">
        <ele>209.155</ele>
        <time>2021-01-09T14:21:36Z</time>
      </trkpt>
      <trkpt lat="45.19715" lon="5.7352">
        <ele>210.021</ele>
        <time>2021-01-09T14:21:41Z</time>
      </trkpt>
      <trkpt lat="45.19715" lon="5.73509">
        <ele>209.788</ele>
        <time>2021-01-09T14:21:46Z</time>
      </trkpt>
      <trkpt lat="45.19716" lon="5.73498">
        <ele>209.556</ele>
        <time>2021-01-09T14:21:51Z</time>
      </trkpt>
      <trkpt lat="45.19715" lon="5.73487">
        <ele>210.191</ele>
        <time>2021-01-09T14:21:56Z</time>
      </trkpt>
      <trkpt lat="45.19713" lon="5.73474">
        <ele>210.733</ele>
        <time>2021-01-09T14:22:01Z</time>
      </trkpt>
      <trkpt lat="45.19711" lon="5.73463">
        <ele>209.73</ele>
        <time>2021-01-09T14:22:06Z</time>
      </trkpt>
      <trkpt lat="45.19711" lon="5.73452">
        <ele>208.586</ele>
        <time>2021-01-09T14:22:11Z</time>
      </trkpt>
      <trkpt lat="45.1971" lon="5.73441">
        <ele>207.56</ele>
        <time>2021-01-09T14:22:16Z</time>
      </trkpt>
      <trkpt lat="45.1971" lon="5.7343">
        <ele>207.208</ele>
        <time>2021-01-09T14:22:21Z</time>
      </trkpt>
      <trkpt lat="45.19709" lon="5.73419">
        <ele>206.789</ele>
        <time>2021-01-09T14:22:26Z</time>
      </trkpt>
      <trkpt lat="45.19709" lon="5.73407">
        <ele>207.271</ele>
        <time>2021-01-09T14:22:31Z</time>
      </trkpt>
      <trkpt lat="45.19714" lon="5.73399">
        <ele>209.027</ele>
        <time>2021-01-09T14:22:36Z</time>
      </trkpt>
      <trkpt lat="45.19719" lon="5.73391">
        <ele>210.815</ele>
        <time>2021-01-09T14:22:41Z</time>
      </trkpt>
      <trkpt lat="45.19723" lon="5.73383">
        <ele>211.559</ele>
        <time>2021-01-09T14:22:46Z</time>
      </trkpt>
      <trkpt lat="45.19727" lon="5.73375">
        <ele>211.496</ele>
        <time>2021-01-09T14:22:51Z</time>
      </trkpt>
      <trkpt lat="45.1973" lon="5.73365">
        <ele>212.425</ele>
        <time>2021-01-09T14:22:56Z</time>
      </trkpt>
      <trkpt lat="45.19733" lon="5.73355">
        <ele>212.566</ele>
        <time>2021-01-09T14:23:01Z</time>
      </trkpt>
      <trkpt lat="45.19736" lon="5.73346">
        <ele>212.765</ele>
        <time>2021-01-09T14:23:06Z</time>
      </trkpt>
      <trkpt lat="45.19738" lon="5.73338">
        <ele>213.33</ele>
        <time>2021-01-09T14:23:11Z</time>
      </trkpt>
      <trkpt lat="45.19741" lon="5.73328">
        <ele>213.938</ele>
        <time>2021-01-09T14:23:16Z</time>
      </trkpt>
      <trkpt lat="45.19744" lon="5.7332">
        <ele>213.749</ele>
        <time>2021-01-09T14:23:21Z</time>
      </trkpt>
      <trkpt lat="45.19752" lon="5.73315">
        <ele>212.87</ele>
        <time>2021-01-09T14:23:26Z</time>
      </trkpt>
      <trkpt lat="45.19756" lon="5.73308">
        <ele>212.65</ele>
        <time>2021-01-09T14:23:31Z</time>
      </trkpt>
      <trkpt lat="45.19763" lon="5.73303">
        <ele>209.885</ele>
        <time>2021-01-09T14:23:36Z</time>
      </trkpt>
      <trkpt lat="45.19768" lon="5.73298">
        <ele>208.299</ele>
        <time>2021-01-09T14:23:41Z</time>
      </trkpt>
      <trkpt lat="45.19772" lon="5.73288">
        <ele>206.131</ele>
        <time>2021-01-09T14:23:47Z</time>
      </trkpt>
      <trkpt lat="45.19774" lon="5.73278">
        <ele>205.661</ele>
        <time>2021-01-09T14:23:52Z</time>
      </trkpt>
      <trkpt lat="45.19778" lon="5.7327">
        <ele>204.818</ele>
        <time>2021-01-09T14:23:58Z</time>
      </trkpt>
      <trkpt lat="45.19783" lon="5.73263">
        <ele>206.689</ele>
        <time>2021-01-09T14:24:07Z</time>
      </trkpt>
      <trkpt lat="45.19787" lon="5.73253">
        <ele>204.913</ele>
        <time>2021-01-09T14:24:12Z</time>
      </trkpt>
      <trkpt lat="45.1979" lon="5.73244">
        <ele>203.328</ele>
        <time>2021-01-09T14:24:18Z</time>
      </trkpt>
      <trkpt lat="45.19792" lon="5.73234">
        <ele>202.455</ele>
        <time>2021-01-09T14:24:23Z</time>
      </trkpt>
      <trkpt lat="45.19795" lon="5.73225">
        <ele>198.351</ele>
        <time>2021-01-09T14:24:28Z</time>
      </trkpt>
      <trkpt lat="45.19795" lon="5.73215">
        <ele>196.292</ele>
        <time>2021-01-09T14:24:33Z</time>
      </trkpt>
      <trkpt lat="45.19794" lon="5.73204">
        <ele>195.607</ele>
        <time>2021-01-09T14:24:38Z</time>
      </trkpt>
      <trkpt lat="45.19793" lon="5.73194">
        <ele>195.295</ele>
        <time>2021-01-09T14:24:43Z</time>
      </trkpt>
      <trkpt lat="45.19789" lon="5.73185">
        <ele>193.542</ele>
        <time>2021-01-09T14:24:48Z</time>
      </trkpt>
      <trkpt lat="45.19787" lon="5.73175">
        <ele>193.694</ele>
        <time>2021-01-09T14:24:53Z</time>
      </trkpt>
      <trkpt lat="45.19787" lon="5.73164">
        <ele>197.768</ele>
        <time>2021-01-09T14:24:59Z</time>
      </trkpt>
      <trkpt lat="45.19788" lon="5.73155">
        <ele>199.715</ele>
        <time>2021-01-09T14:25:05Z</time>
      </trkpt>
      <trkpt lat="45.1979" lon="5.73144">
        <ele>203.594</ele>
        <time>2021-01-09T14:25:11Z</time>
      </trkpt>
      <trkpt lat="45.19794" lon="5.73136">
        <ele>204.065</ele>
        <time>2021-01-09T14:25:17Z</time>
      </trkpt>
      <trkpt lat="45.198" lon="5.73132">
        <ele>208.278</ele>
        <time>2021-01-09T14:25:24Z</time>
      </trkpt>
      <trkpt lat="45.19807" lon="5.73129">
        <ele>208.845</ele>
        <time>2021-01-09T14:25:31Z</time>
      </trkpt>
      <trkpt lat="45.19806" lon="5.7312">
        <ele>204.297</ele>
        <time>2021-01-09T14:25:36Z</time>
      </trkpt>
      <trkpt lat="45.19799" lon="5.73118">
        <ele>203.422</ele>
        <time>2021-01-09T14:25:41Z</time>
      </trkpt>
      <trkpt lat="45.19793" lon="5.73116">
        <ele>203.25</ele>
        <time>2021-01-09T14:25:46Z</time>
      </trkpt>
      <trkpt lat="45.19787" lon="5.73111">
        <ele>204.86</ele>
        <time>2021-01-09T14:25:52Z</time>
      </trkpt>
      <trkpt lat="45.1978" lon="5.73105">
        <ele>205.879</ele>
        <time>2021-01-09T14:25:59Z</time>
      </trkpt>
      <trkpt lat="45.19774" lon="5.731">
        <ele>211.586</ele>
        <time>2021-01-09T14:26:06Z</time>
      </trkpt>
      <trkpt lat="45.19768" lon="5.73094">
        <ele>214.244</ele>
        <time>2021-01-09T14:26:11Z</time>
      </trkpt>
      <trkpt lat="45.19773" lon="5.73087">
        <ele>221.696</ele>
        <time>2021-01-09T14:26:22Z</time>
      </trkpt>
      <trkpt lat="45.1978" lon="5.7309">
        <ele>225.415</ele>
        <time>2021-01-09T14:26:29Z</time>
      </trkpt>
      <trkpt lat="45.19787" lon="5.73092">
        <ele>226.563</ele>
        <time>2021-01-09T14:26:36Z</time>
      </trkpt>
      <trkpt lat="45.19794" lon="5.73095">
        <ele>225.934</ele>
        <time>2021-01-09T14:26:44Z</time>
      </trkpt>
      <trkpt lat="45.19801" lon="5.73098">
        <ele>226.131</ele>
        <time>2021-01-09T14:26:51Z</time>
      </trkpt>
      <trkpt lat="45.198" lon="5.73089">
        <ele>224.923</ele>
        <time>2021-01-09T14:27:02Z</time>
      </trkpt>
      <trkpt lat="45.19793" lon="5.73085">
        <ele>224.044</ele>
        <time>2021-01-09T14:27:08Z</time>
      </trkpt>
      <trkpt lat="45.19787" lon="5.73081">
        <ele>225.962</ele>
        <time>2021-01-09T14:27:14Z</time>
      </trkpt>
      <trkpt lat="45.1978" lon="5.73078">
        <ele>228.746</ele>
        <time>2021-01-09T14:27:21Z</time>
      </trkpt>
      <trkpt lat="45.19774" lon="5.73076">
        <ele>230.92</ele>
        <time>2021-01-09T14:27:27Z</time>
      </trkpt>
      <trkpt lat="45.19768" lon="5.73072">
        <ele>233.867</ele>
        <time>2021-01-09T14:27:33Z</time>
      </trkpt>
      <trkpt lat="45.19762" lon="5.73068">
        <ele>234.276</ele>
        <time>2021-01-09T14:27:39Z</time>
      </trkpt>
      <trkpt lat="45.19755" lon="5.73061">
        <ele>236.33</ele>
        <time>2021-01-09T14:27:45Z</time>
      </trkpt>
      <trkpt lat="45.19761" lon="5.73056">
        <ele>234.518</ele>
        <time>2021-01-09T14:27:54Z</time>
      </trkpt>
      <trkpt lat="45.19768" lon="5.73057">
        <ele>236.768</ele>
        <time>2021-01-09T14:28:00Z</time>
      </trkpt>
      <trkpt lat="45.19775" lon="5.73057">
        <ele>237.448</ele>
        <time>2021-01-09T14:28:06Z</time>
      </trkpt>
      <trkpt lat="45.19783" lon="5.73059">
        <ele>237.768</ele>
        <time>2021-01-09T14:28:12Z</time>
      </trkpt>
      <trkpt lat="45.1979" lon="5.7306">
        <ele>238.944</ele>
        <time>2021-01-09T14:28:18Z</time>
      </trkpt>
      <trkpt lat="45.19797" lon="5.73064">
        <ele>241.369</ele>
        <time>2021-01-09T14:28:24Z</time>
      </trkpt>
      <trkpt lat="45.19803" lon="5.73059">
        <ele>237.737</ele>
        <time>2021-01-09T14:28:32Z</time>
      </trkpt>
      <trkpt lat="45.19797" lon="5.73053">
        <ele>234.299</ele>
        <time>2021-01-09T14:28:38Z</time>
      </trkpt>
      <trkpt lat="45.19791" lon="5.73049">
        <ele>234.393</ele>
        <time>2021-01-09T14:28:44Z</time>
      </trkpt>
      <trkpt lat="45.19784" lon="5.73047">
        <ele>235.348</ele>
        <time>2021-01-09T14:28:49Z</time>
      </trkpt>
      <trkpt lat="45.19778" lon="5.73044">
        <ele>234.76</ele>
        <time>2021-01-09T14:28:54Z</time>
      </trkpt>
      <trkpt lat="45.19771" lon="5.7304">
        <ele>238.39</ele>
        <time>2021-01-09T14:28:59Z</time>
      </trkpt>
      <trkpt lat="45.19765" lon="5.73039">
        <ele>242.141</ele>
        <time>2021-01-09T14:29:04Z</time>
      </trkpt>
      <trkpt lat="45.19757" lon="5.73037">
        <ele>243.968</ele>
        <time>2021-01-09T14:29:09Z</time>
      </trkpt>
      <trkpt lat="45.19762" lon="5.7303">
        <ele>247.942</ele>
        <time>2021-01-09T14:29:18Z</time>
      </trkpt>
      <trkpt lat="45.19768" lon="5.73031">
        <ele>248.432</ele>
        <time>2021-01-09T14:29:23Z</time>
      </trkpt>
      <trkpt lat="45.19774" lon="5.73036">
        <ele>249.893</ele>
        <time>2021-01-09T14:29:29Z</time>
      </trkpt>
      <trkpt lat="45.19781" lon="5.73038">
        <ele>252.001</ele>
        <time>2021-01-09T14:29:35Z</time>
      </trkpt>
      <trkpt lat="45.19788" lon="5.73038">
        <ele>253.435</ele>
        <time>2021-01-09T14:29:40Z</time>
      </trkpt>
      <trkpt lat="45.19795" lon="5.7304">
        <ele>254.97</ele>
        <time>2021-01-09T14:29:45Z</time>
      </trkpt>
      <trkpt lat="45.19801" lon="5.73043">
        <ele>255.628</ele>
        <time>2021-01-09T14:29:51Z</time>
      </trkpt>
      <trkpt lat="45.19808" lon="5.73046">
        <ele>256.198</ele>
        <time>2021-01-09T14:29:56Z</time>
      </trkpt>
      <trkpt lat="45.19811" lon="5.73039">
        <ele>247.82</ele>
        <time>2021-01-09T14:30:02Z</time>
      </trkpt>
      <trkpt lat="45.19805" lon="5.73033">
        <ele>246.051</ele>
        <time>2021-01-09T14:30:07Z</time>
      </trkpt>
      <trkpt lat="45.19799" lon="5.7303">
        <ele>246.327</ele>
        <time>2021-01-09T14:30:12Z</time>
      </trkpt>
      <trkpt lat="45.19792" lon="5.73027">
        <ele>247.415</ele>
        <time>2021-01-09T14:30:18Z</time>
      </trkpt>
      <trkpt lat="45.19785" lon="5.73025">
        <ele>250.741</ele>
        <time>2021-01-09T14:30:23Z</time>
      </trkpt>
      <trkpt lat="45.19778" lon="5.73022">
        <ele>253.594</ele>
        <time>2021-01-09T14:30:29Z</time>
      </trkpt>
      <trkpt lat="45.19772" lon="5.73019">
        <ele>254.103</ele>
        <time>2021-01-09T14:30:35Z</time>
      </trkpt>
      <trkpt lat="45.1977" lon="5.73009">
        <ele>252.491</ele>
        <time>2021-01-09T14:30:42Z</time>
      </trkpt>
      <trkpt lat="45.19777" lon="5.73008">
        <ele>253.4</ele>
        <time>2021-01-09T14:30:47Z</time>
      </trkpt>
      <trkpt lat="45.19783" lon="5.73011">
        <ele>257.397</ele>
        <time>2021-01-09T14:30:53Z</time>
      </trkpt>
      <trkpt lat="45.1979" lon="5.73016">
        <ele>260.261</ele>
        <time>2021-01-09T14:31:00Z</time>
      </trkpt>
      <trkpt lat="45.19796" lon="5.7302">
        <ele>262.269</ele>
        <time>2021-01-09T14:31:06Z</time>
      </trkpt>
      <trkpt lat="45.19803" lon="5.73023">
        <ele>262.091</ele>
        <time>2021-01-09T14:31:13Z</time>
      </trkpt>
      <trkpt lat="45.19809" lon="5.73026">
        <ele>264.542</ele>
        <time>2021-01-09T14:31:19Z</time>
      </trkpt>
      <trkpt lat="45.19807" lon="5.73016">
        <ele>265</ele>
        <time>2021-01-09T14:31:28Z</time>
      </trkpt>
      <trkpt lat="45.19801" lon="5.73011">
        <ele>263.466</ele>
        <time>2021-01-09T14:31:35Z</time>
      </trkpt>
      <trkpt lat="45.19794" lon="5.73006">
        <ele>264.425</ele>
        <time>2021-01-09T14:31:41Z</time>
      </trkpt>
      <trkpt lat="45.19789" lon="5.73">
        <ele>264.029</ele>
        <time>2021-01-09T14:31:47Z</time>
      </trkpt>
      <trkpt lat="45.19783" lon="5.72994">
        <ele>267.354</ele>
        <time>2021-01-09T14:31:53Z</time>
      </trkpt>
      <trkpt lat="45.19777" lon="5.72988">
        <ele>269.761</ele>
        <time>2021-01-09T14:31:59Z</time>
      </trkpt>
      <trkpt lat="45.19772" lon="5.72982">
        <ele>270.571</ele>
        <time>2021-01-09T14:32:05Z</time>
      </trkpt>
      <trkpt lat="45.19767" lon="5.72976">
        <ele>272.142</ele>
        <time>2021-01-09T14:32:11Z</time>
      </trkpt>
      <trkpt lat="45.19762" lon="5.72969">
        <ele>273.53</ele>
        <time>2021-01-09T14:32:17Z</time>
      </trkpt>
      <trkpt lat="45.19756" lon="5.72962">
        <ele>272.941</ele>
        <time>2021-01-09T14:32:23Z</time>
      </trkpt>
      <trkpt lat="45.19752" lon="5.72953">
        <ele>274.769</ele>
        <time>2021-01-09T14:32:28Z</time>
      </trkpt>
      <trkpt lat="45.19748" lon="5.72946">
        <ele>274.058</ele>
        <time>2021-01-09T14:32:33Z</time>
      </trkpt>
      <trkpt lat="45.19743" lon="5.72938">
        <ele>274.993</ele>
        <time>2021-01-09T14:32:40Z</time>
      </trkpt>
      <trkpt lat="45.19739" lon="5.72931">
        <ele>274.735</ele>
        <time>2021-01-09T14:32:46Z</time>
      </trkpt>
      <trkpt lat="45.19734" lon="5.72922">
        <ele>275.438</ele>
        <time>2021-01-09T14:32:52Z</time>
      </trkpt>
      <trkpt lat="45.1973" lon="5.72915">
        <ele>275.674</ele>
        <time>2021-01-09T14:32:57Z</time>
      </trkpt>
      <trkpt lat="45.19726" lon="5.72907">
        <ele>275.687</ele>
        <time>2021-01-09T14:33:03Z</time>
      </trkpt>
      <trkpt lat="45.19721" lon="5.72899">
        <ele>276.023</ele>
        <time>2021-01-09T14:33:09Z</time>
      </trkpt>
      <trkpt lat="45.19717" lon="5.72891">
        <ele>277.524</ele>
        <time>2021-01-09T14:33:15Z</time>
      </trkpt>
      <trkpt lat="45.19714" lon="5.72884">
        <ele>279.401</ele>
        <time>2021-01-09T14:33:21Z</time>
      </trkpt>
      <trkpt lat="45.1971" lon="5.72876">
        <ele>281.087</ele>
        <time>2021-01-09T14:33:27Z</time>
      </trkpt>
      <trkpt lat="45.19706" lon="5.72869">
        <ele>283.292</ele>
        <time>2021-01-09T14:33:33Z</time>
      </trkpt>
      <trkpt lat="45.19702" lon="5.72861">
        <ele>283.443</ele>
        <time>2021-01-09T14:33:39Z</time>
      </trkpt>
      <trkpt lat="45.19697" lon="5.72854">
        <ele>283.856</ele>
        <time>2021-01-09T14:33:45Z</time>
      </trkpt>
      <trkpt lat="45.19704" lon="5.72855">
        <ele>281.548</ele>
        <time>2021-01-09T14:33:54Z</time>
      </trkpt>
      <trkpt lat="45.19709" lon="5.72861">
        <ele>284.576</ele>
        <time>2021-01-09T14:34:01Z</time>
      </trkpt>
      <trkpt lat="45.19716" lon="5.72867">
        <ele>285.629</ele>
        <time>2021-01-09T14:34:08Z</time>
      </trkpt>
      <trkpt lat="45.19721" lon="5.72872">
        <ele>290.049</ele>
        <time>2021-01-09T14:34:14Z</time>
      </trkpt>
      <trkpt lat="45.19728" lon="5.72877">
        <ele>291.686</ele>
        <time>2021-01-09T14:34:20Z</time>
      </trkpt>
      <trkpt lat="45.19734" lon="5.72883">
        <ele>291.444</ele>
        <time>2021-01-09T14:34:26Z</time>
      </trkpt>
      <trkpt lat="45.1974" lon="5.72887">
        <ele>290.63</ele>
        <time>2021-01-09T14:34:32Z</time>
      </trkpt>
      <trkpt lat="45.19748" lon="5.7289">
        <ele>290.545</ele>
        <time>2021-01-09T14:34:38Z</time>
      </trkpt>
      <trkpt lat="45.19754" lon="5.72893">
        <ele>291.9</ele>
        <time>2021-01-09T14:34:43Z</time>
      </trkpt>
      <trkpt lat="45.19761" lon="5.72897">
        <ele>290.693</ele>
        <time>2021-01-09T14:34:49Z</time>
      </trkpt>
      <trkpt lat="45.19767" lon="5.72901">
        <ele>291.349</ele>
        <time>2021-01-09T14:34:56Z</time>
      </trkpt>
      <trkpt lat="45.19774" lon="5.72904">
        <ele>290.718</ele>
        <time>2021-01-09T14:35:01Z</time>
      </trkpt>
      <trkpt lat="45.19781" lon="5.72906">
        <ele>290.451</ele>
        <time>2021-01-09T14:35:07Z</time>
      </trkpt>
      <trkpt lat="45.19788" lon="5.7291">
        <ele>290.687</ele>
        <time>2021-01-09T14:35:13Z</time>
      </trkpt>
      <trkpt lat="45.19795" lon="5.72911">
        <ele>290.169</ele>
        <time>2021-01-09T14:35:19Z</time>
      </trkpt>
      <trkpt lat="45.19802" lon="5.72913">
        <ele>290.595</ele>
        <time>2021-01-09T14:35:25Z</time>
      </trkpt>
      <trkpt lat="45.19808" lon="5.72919">
        <ele>291.602</ele>
        <time>2021-01-09T14:35:33Z</time>
      </trkpt>
      <trkpt lat="45.19807" lon="5.7291">
        <ele>289.982</ele>
        <time>2021-01-09T14:35:42Z</time>
      </trkpt>
      <trkpt lat="45.198" lon="5.72906">
        <ele>289.235</ele>
        <time>2021-01-09T14:35:48Z</time>
      </trkpt>
      <trkpt lat="45.19792" lon="5.729">
        <ele>287.163</ele>
        <time>2021-01-09T14:35:53Z</time>
      </trkpt>
      <trkpt lat="45.19785" lon="5.72894">
        <ele>287.807</ele>
        <time>2021-01-09T14:35:58Z</time>
      </trkpt>
      <trkpt lat="45.19779" lon="5.7289">
        <ele>286.938</ele>
        <time>2021-01-09T14:36:03Z</time>
      </trkpt>
      <trkpt lat="45.19774" lon="5.72883">
        <ele>290.565</ele>
        <time>2021-01-09T14:36:09Z</time>
      </trkpt>
      <trkpt lat="45.19769" lon="5.72876">
        <ele>289.509</ele>
        <time>2021-01-09T14:36:15Z</time>
      </trkpt>
      <trkpt lat="45.19766" lon="5.72867">
        <ele>285.824</ele>
        <time>2021-01-09T14:36:21Z</time>
      </trkpt>
      <trkpt lat="45.1976" lon="5.72861">
        <ele>287.045</ele>
        <time>2021-01-09T14:36:27Z</time>
      </trkpt>
      <trkpt lat="45.19755" lon="5.72855">
        <ele>290.792</ele>
        <time>2021-01-09T14:36:34Z</time>
      </trkpt>
      <trkpt lat="45.19752" lon="5.72846">
        <ele>293.808</ele>
        <time>2021-01-09T14:36:40Z</time>
      </trkpt>
      <trkpt lat="45.19747" lon="5.7284">
        <ele>296.146</ele>
        <time>2021-01-09T14:36:47Z</time>
      </trkpt>
      <trkpt lat="45.19753" lon="5.72838">
        <ele>294.05</ele>
        <time>2021-01-09T14:36:58Z</time>
      </trkpt>
      <trkpt lat="45.19758" lon="5.72844">
        <ele>298.297</ele>
        <time>2021-01-09T14:37:04Z</time>
      </trkpt>
      <trkpt lat="45.19764" lon="5.72849">
        <ele>300.562</ele>
        <time>2021-01-09T14:37:10Z</time>
      </trkpt>
      <trkpt lat="45.1977" lon="5.72854">
        <ele>303.044</ele>
        <time>2021-01-09T14:37:16Z</time>
      </trkpt>
      <trkpt lat="45.19776" lon="5.72859">
        <ele>302.621</ele>
        <time>2021-01-09T14:37:22Z</time>
      </trkpt>
      <trkpt lat="45.19782" lon="5.72864">
        <ele>305.216</ele>
        <time>2021-01-09T14:37:28Z</time>
      </trkpt>
      <trkpt lat="45.19789" lon="5.72866">
        <ele>306.826</ele>
        <time>2021-01-09T14:37:33Z</time>
      </trkpt>
      <trkpt lat="45.19796" lon="5.72871">
        <ele>307.43</ele>
        <time>2021-01-09T14:37:39Z</time>
      </trkpt>
      <trkpt lat="45.19802" lon="5.72876">
        <ele>310.957</ele>
        <time>2021-01-09T14:37:45Z</time>
      </trkpt>
      <trkpt lat="45.19808" lon="5.72878">
        <ele>312.484</ele>
        <time>2021-01-09T14:37:51Z</time>
      </trkpt>
      <trkpt lat="45.19815" lon="5.72879">
        <ele>312.31</ele>
        <time>2021-01-09T14:37:57Z</time>
      </trkpt>
      <trkpt lat="45.19816" lon="5.72869">
        <ele>302.597</ele>
        <time>2021-01-09T14:38:03Z</time>
      </trkpt>
      <trkpt lat="45.19811" lon="5.72863">
        <ele>301.821</ele>
        <time>2021-01-09T14:38:08Z</time>
      </trkpt>
      <trkpt lat="45.19805" lon="5.72857">
        <ele>299.479</ele>
        <time>2021-01-09T14:38:14Z</time>
      </trkpt>
      <trkpt lat="45.19799" lon="5.72851">
        <ele>301.524</ele>
        <time>2021-01-09T14:38:21Z</time>
      </trkpt>
      <trkpt lat="45.19794" lon="5.72845">
        <ele>303.395</ele>
        <time>2021-01-09T14:38:28Z</time>
      </trkpt>
      <trkpt lat="45.19788" lon="5.72837">
        <ele>301.823</ele>
        <time>2021-01-09T14:38:35Z</time>
      </trkpt>
      <trkpt lat="45.19783" lon="5.7283">
        <ele>301.567</ele>
        <time>2021-01-09T14:38:41Z</time>
      </trkpt>
      <trkpt lat="45.19777" lon="5.72824">
        <ele>304.666</ele>
        <time>2021-01-09T14:38:47Z</time>
      </trkpt>
      <trkpt lat="45.19771" lon="5.72819">
        <ele>309.898</ele>
        <time>2021-01-09T14:38:53Z</time>
      </trkpt>
      <trkpt lat="45.19765" lon="5.72812">
        <ele>311.796</ele>
        <time>2021-01-09T14:38:59Z</time>
      </trkpt>
      <trkpt lat="45.19759" lon="5.72804">
        <ele>311.406</ele>
        <time>2021-01-09T14:39:05Z</time>
      </trkpt>
      <trkpt lat="45.19765" lon="5.72799">
        <ele>311.335</ele>
        <time>2021-01-09T14:39:15Z</time>
      </trkpt>
      <trkpt lat="45.1977" lon="5.72805">
        <ele>316.956</ele>
        <time>2021-01-09T14:39:23Z</time>
      </trkpt>
      <trkpt lat="45.19776" lon="5.72811">
        <ele>321.98</ele>
        <time>2021-01-09T14:39:29Z</time>
      </trkpt>
      <trkpt lat="45.19781" lon="5.72816">
        <ele>323.076</ele>
        <time>2021-01-09T14:39:35Z</time>
      </trkpt>
      <trkpt lat="45.19787" lon="5.72821">
        <ele>325.142</ele>
        <time>2021-01-09T14:39:41Z</time>
      </trkpt>
      <trkpt lat="45.19794" lon="5.72826">
        <ele>329.193</ele>
        <time>2021-01-09T14:39:47Z</time>
      </trkpt>
      <trkpt lat="45.198" lon="5.72831">
        <ele>329.05</ele>
        <time>2021-01-09T14:39:53Z</time>
      </trkpt>
      <trkpt lat="45.19806" lon="5.72834">
        <ele>329.756</ele>
        <time>2021-01-09T14:39:59Z</time>
      </trkpt>
      <trkpt lat="45.19813" lon="5.72837">
        <ele>330.177</ele>
        <time>2021-01-09T14:40:05Z</time>
      </trkpt>
      <trkpt lat="45.1982" lon="5.7284">
        <ele>330.365</ele>
        <time>2021-01-09T14:40:10Z</time>
      </trkpt>
      <trkpt lat="45.19827" lon="5.72843">
        <ele>330.562</ele>
        <time>2021-01-09T14:40:17Z</time>
      </trkpt>
      <trkpt lat="45.19823" lon="5.72834">
        <ele>328.037</ele>
        <time>2021-01-09T14:40:28Z</time>
      </trkpt>
      <trkpt lat="45.19817" lon="5.7283">
        <ele>326.117</ele>
        <time>2021-01-09T14:40:34Z</time>
      </trkpt>
      <trkpt lat="45.19812" lon="5.72823">
        <ele>329.447</ele>
        <time>2021-01-09T14:40:40Z</time>
      </trkpt>
      <trkpt lat="45.19806" lon="5.72819">
        <ele>331.841</ele>
        <time>2021-01-09T14:40:46Z</time>
      </trkpt>
      <trkpt lat="45.19812" lon="5.72821">
        <ele>335.694</ele>
        <time>2021-01-09T14:41:07Z</time>
      </trkpt>
      <trkpt lat="45.19818" lon="5.72826">
        <ele>336.105</ele>
        <time>2021-01-09T14:41:14Z</time>
      </trkpt>
      <trkpt lat="45.19824" lon="5.72831">
        <ele>337.176</ele>
        <time>2021-01-09T14:41:21Z</time>
      </trkpt>
      <trkpt lat="45.19831" lon="5.72833">
        <ele>338.624</ele>
        <time>2021-01-09T14:41:28Z</time>
      </trkpt>
      <trkpt lat="45.19829" lon="5.72824">
        <ele>338.248</ele>
        <time>2021-01-09T14:41:41Z</time>
      </trkpt>
      <trkpt lat="45.19822" lon="5.72819">
        <ele>338.472</ele>
        <time>2021-01-09T14:41:49Z</time>
      </trkpt>
      <trkpt lat="45.19829" lon="5.72818">
        <ele>343.756</ele>
        <time>2021-01-09T14:42:03Z</time>
      </trkpt>
      <trkpt lat="45.19835" lon="5.72824">
        <ele>347.387</ele>
        <time>2021-01-09T14:42:10Z</time>
      </trkpt>
      <trkpt lat="45.19841" lon="5.72829">
        <ele>349.903</ele>
        <time>2021-01-09T14:42:16Z</time>
      </trkpt>
      <trkpt lat="45.19848" lon="5.7283">
        <ele>351.916</ele>
        <time>2021-01-09T14:42:21Z</time>
      </trkpt>
      <trkpt lat="45.19849" lon="5.7282">
        <ele>344.768</ele>
        <time>2021-01-09T14:42:27Z</time>
      </trkpt>
      <trkpt lat="45.19843" lon="5.72817">
        <ele>346.03</ele>
        <time>2021-01-09T14:42:32Z</time>
      </trkpt>
      <trkpt lat="45.19837" lon="5.72815">
        <ele>349.142</ele>
        <time>2021-01-09T14:42:37Z</time>
      </trkpt>
      <trkpt lat="45.19831" lon="5.72808">
        <ele>350.137</ele>
        <time>2021-01-09T14:42:43Z</time>
      </trkpt>
      <trkpt lat="45.19826" lon="5.72802">
        <ele>351.431</ele>
        <time>2021-01-09T14:42:49Z</time>
      </trkpt>
      <trkpt lat="45.1982" lon="5.72796">
        <ele>353.637</ele>
        <time>2021-01-09T14:42:56Z</time>
      </trkpt>
      <trkpt lat="45.19813" lon="5.72792">
        <ele>354.752</ele>
        <time>2021-01-09T14:43:02Z</time>
      </trkpt>
      <trkpt lat="45.19807" lon="5.72787">
        <ele>355.028</ele>
        <time>2021-01-09T14:43:09Z</time>
      </trkpt>
      <trkpt lat="45.19805" lon="5.72778">
        <ele>355.367</ele>
        <time>2021-01-09T14:43:16Z</time>
      </trkpt>
      <trkpt lat="45.19811" lon="5.72782">
        <ele>359.286</ele>
        <time>2021-01-09T14:43:26Z</time>
      </trkpt>
      <trkpt lat="45.19816" lon="5.72787">
        <ele>361.401</ele>
        <time>2021-01-09T14:43:33Z</time>
      </trkpt>
      <trkpt lat="45.19822" lon="5.72791">
        <ele>363.644</ele>
        <time>2021-01-09T14:43:39Z</time>
      </trkpt>
      <trkpt lat="45.19828" lon="5.72797">
        <ele>366.04</ele>
        <time>2021-01-09T14:43:46Z</time>
      </trkpt>
      <trkpt lat="45.19834" lon="5.72803">
        <ele>367.86</ele>
        <time>2021-01-09T14:43:53Z</time>
      </trkpt>
      <trkpt lat="45.1984" lon="5.72807">
        <ele>369.8</ele>
        <time>2021-01-09T14:44:00Z</time>
      </trkpt>
      <trkpt lat="45.19838" lon="5.72798">
        <ele>371.117</ele>
        <time>2021-01-09T14:44:12Z</time>
      </trkpt>
      <trkpt lat="45.19834" lon="5.7279">
        <ele>371.685</ele>
        <time>2021-01-09T14:44:18Z</time>
      </trkpt>
      <trkpt lat="45.19829" lon="5.72784">
        <ele>372.45</ele>
        <time>2021-01-09T14:44:24Z</time>
      </trkpt>
      <trkpt lat="45.19823" lon="5.72779">
        <ele>374.293</ele>
        <time>2021-01-09T14:44:30Z</time>
      </trkpt>
      <trkpt lat="45.19817" lon="5.72774">
        <ele>375.424</ele>
        <time>2021-01-09T14:44:36Z</time>
      </trkpt>
      <trkpt lat="45.19813" lon="5.72767">
        <ele>377.282</ele>
        <time>2021-01-09T14:44:42Z</time>
      </trkpt>
      <trkpt lat="45.19809" lon="5.72758">
        <ele>374.591</ele>
        <time>2021-01-09T14:44:49Z</time>
      </trkpt>
      <trkpt lat="45.19803" lon="5.72752">
        <ele>377.971</ele>
        <time>2021-01-09T14:44:56Z</time>
      </trkpt>
      <trkpt lat="45.19798" lon="5.72745">
        <ele>378.659</ele>
        <time>2021-01-09T14:45:02Z</time>
      </trkpt>
      <trkpt lat="45.19792" lon="5.72739">
        <ele>380.114</ele>
        <time>2021-01-09T14:45:08Z</time>
      </trkpt>
      <trkpt lat="45.19799" lon="5.72739">
        <ele>381.204</ele>
        <time>2021-01-09T14:45:19Z</time>
      </trkpt>
      <trkpt lat="45.19805" lon="5.72745">
        <ele>381.036</ele>
        <time>2021-01-09T14:45:26Z</time>
      </trkpt>
      <trkpt lat="45.19811" lon="5.7275">
        <ele>382.324</ele>
        <time>2021-01-09T14:45:32Z</time>
      </trkpt>
      <trkpt lat="45.19817" lon="5.72757">
        <ele>381.827</ele>
        <time>2021-01-09T14:45:39Z</time>
      </trkpt>
      <trkpt lat="45.19823" lon="5.72762">
        <ele>381.786</ele>
        <time>2021-01-09T14:45:46Z</time>
      </trkpt>
      <trkpt lat="45.19829" lon="5.72767">
        <ele>383.318</ele>
        <time>2021-01-09T14:45:53Z</time>
      </trkpt>
      <trkpt lat="45.19835" lon="5.72771">
        <ele>382.488</ele>
        <time>2021-01-09T14:45:59Z</time>
      </trkpt>
      <trkpt lat="45.19842" lon="5.72776">
        <ele>384.24</ele>
        <time>2021-01-09T14:46:06Z</time>
      </trkpt>
      <trkpt lat="45.19849" lon="5.7278">
        <ele>383.967</ele>
        <time>2021-01-09T14:46:12Z</time>
      </trkpt>
      <trkpt lat="45.1985" lon="5.72771">
        <ele>382.645</ele>
        <time>2021-01-09T14:46:24Z</time>
      </trkpt>
      <trkpt lat="45.19856" lon="5.72772">
        <ele>386.104</ele>
        <time>2021-01-09T14:46:35Z</time>
      </trkpt>
      <trkpt lat="45.19864" lon="5.72773">
        <ele>389.631</ele>
        <time>2021-01-09T14:46:52Z</time>
      </trkpt>
      <trkpt lat="45.19861" lon="5.72765">
        <ele>386.166</ele>
        <time>2021-01-09T14:46:57Z</time>
      </trkpt>
      <trkpt lat="45.19837" lon="5.72762">
        <ele>399.983</ele>
        <time>2021-01-09T14:47:42Z</time>
      </trkpt>
      <trkpt lat="45.19839" lon="5.72758">
        <ele>385.927</ele>
        <time>2021-01-09T14:47:43Z</time>
      </trkpt>
      <trkpt lat="45.19844" lon="5.72753">
        <ele>396.058</ele>
        <time>2021-01-09T14:47:45Z</time>
      </trkpt>
      <trkpt lat="45.19853" lon="5.72747">
        <ele>394.899</ele>
        <time>2021-01-09T14:47:50Z</time>
      </trkpt>
      <trkpt lat="45.1986" lon="5.72747">
        <ele>389.849</ele>
        <time>2021-01-09T14:47:55Z</time>
      </trkpt>
      <trkpt lat="45.19861" lon="5.72757">
        <ele>398.051</ele>
        <time>2021-01-09T14:48:04Z</time>
      </trkpt>
      <trkpt lat="45.19865" lon="5.72747">
        <ele>395.849</ele>
        <time>2021-01-09T14:48:15Z</time>
      </trkpt>
      <trkpt lat="45.19865" lon="5.72738">
        <ele>395.891</ele>
        <time>2021-01-09T14:48:20Z</time>
      </trkpt>
      <trkpt lat="45.1986" lon="5.72731">
        <ele>398.031</ele>
        <time>2021-01-09T14:48:26Z</time>
      </trkpt>
      <trkpt lat="45.19853" lon="5.7273">
        <ele>399.17</ele>
        <time>2021-01-09T14:48:33Z</time>
      </trkpt>
      <trkpt lat="45.19848" lon="5.72736">
        <ele>401.121</ele>
        <time>2021-01-09T14:48:39Z</time>
      </trkpt>
      <trkpt lat="45.19845" lon="5.72745">
        <ele>405.87</ele>
        <time>2021-01-09T14:48:46Z</time>
      </trkpt>
      <trkpt lat="45.19838" lon="5.72746">
        <ele>411.766</ele>
        <time>2021-01-09T14:49:05Z</time>
      </trkpt>
      <trkpt lat="45.19838" lon="5.72735">
        <ele>407.326</ele>
        <time>2021-01-09T14:49:10Z</time>
      </trkpt>
      <trkpt lat="45.19839" lon="5.72725">
        <ele>406.462</ele>
        <time>2021-01-09T14:49:15Z</time>
      </trkpt>
      <trkpt lat="45.19833" lon="5.72719">
        <ele>409.095</ele>
        <time>2021-01-09T14:49:27Z</time>
      </trkpt>
      <trkpt lat="45.19827" lon="5.72712">
        <ele>410.767</ele>
        <time>2021-01-09T14:49:32Z</time>
      </trkpt>
      <trkpt lat="45.1982" lon="5.72708">
        <ele>412.329</ele>
        <time>2021-01-09T14:49:37Z</time>
      </trkpt>
      <trkpt lat="45.19815" lon="5.72701">
        <ele>409.526</ele>
        <time>2021-01-09T14:49:43Z</time>
      </trkpt>
      <trkpt lat="45.19809" lon="5.72696">
        <ele>409.95</ele>
        <time>2021-01-09T14:49:48Z</time>
      </trkpt>
      <trkpt lat="45.19803" lon="5.72691">
        <ele>413.335</ele>
        <time>2021-01-09T14:49:53Z</time>
      </trkpt>
      <trkpt lat="45.19797" lon="5.72683">
        <ele>412.655</ele>
        <time>2021-01-09T14:49:58Z</time>
      </trkpt>
      <trkpt lat="45.19792" lon="5.72678">
        <ele>413.213</ele>
        <time>2021-01-09T14:50:03Z</time>
      </trkpt>
      <trkpt lat="45.19786" lon="5.72671">
        <ele>413.25</ele>
        <time>2021-01-09T14:50:08Z</time>
      </trkpt>
      <trkpt lat="45.1978" lon="5.72666">
        <ele>414.658</ele>
        <time>2021-01-09T14:50:13Z</time>
      </trkpt>
      <trkpt lat="45.19774" lon="5.72659">
        <ele>414.244</ele>
        <time>2021-01-09T14:50:18Z</time>
      </trkpt>
      <trkpt lat="45.19769" lon="5.72652">
        <ele>414.282</ele>
        <time>2021-01-09T14:50:23Z</time>
      </trkpt>
      <trkpt lat="45.19765" lon="5.72645">
        <ele>415.444</ele>
        <time>2021-01-09T14:50:28Z</time>
      </trkpt>
      <trkpt lat="45.19762" lon="5.72636">
        <ele>415.419</ele>
        <time>2021-01-09T14:50:33Z</time>
      </trkpt>
      <trkpt lat="45.1976" lon="5.72625">
        <ele>416.109</ele>
        <time>2021-01-09T14:50:38Z</time>
      </trkpt>
      <trkpt lat="45.19758" lon="5.72616">
        <ele>416.616</ele>
        <time>2021-01-09T14:50:43Z</time>
      </trkpt>
      <trkpt lat="45.19756" lon="5.72607">
        <ele>417.691</ele>
        <time>2021-01-09T14:50:48Z</time>
      </trkpt>
      <trkpt lat="45.19754" lon="5.72598">
        <ele>419.648</ele>
        <time>2021-01-09T14:50:53Z</time>
      </trkpt>
      <trkpt lat="45.19751" lon="5.72587">
        <ele>419.001</ele>
        <time>2021-01-09T14:50:59Z</time>
      </trkpt>
      <trkpt lat="45.1975" lon="5.72577">
        <ele>418.527</ele>
        <time>2021-01-09T14:51:04Z</time>
      </trkpt>
      <trkpt lat="45.19746" lon="5.72568">
        <ele>420.223</ele>
        <time>2021-01-09T14:51:12Z</time>
      </trkpt>
      <trkpt lat="45.19746" lon="5.72558">
        <ele>420.513</ele>
        <time>2021-01-09T14:51:17Z</time>
      </trkpt>
      <trkpt lat="45.19746" lon="5.72549">
        <ele>420.015</ele>
        <time>2021-01-09T14:51:23Z</time>
      </trkpt>
      <trkpt lat="45.19748" lon="5.72539">
        <ele>418.753</ele>
        <time>2021-01-09T14:51:29Z</time>
      </trkpt>
      <trkpt lat="45.19753" lon="5.72532">
        <ele>418.259</ele>
        <time>2021-01-09T14:51:36Z</time>
      </trkpt>
      <trkpt lat="45.19757" lon="5.72525">
        <ele>416.999</ele>
        <time>2021-01-09T14:51:42Z</time>
      </trkpt>
      <trkpt lat="45.19762" lon="5.72518">
        <ele>417.236</ele>
        <time>2021-01-09T14:51:48Z</time>
      </trkpt>
      <trkpt lat="45.19768" lon="5.72512">
        <ele>416.397</ele>
        <time>2021-01-09T14:51:54Z</time>
      </trkpt>
      <trkpt lat="45.19773" lon="5.72506">
        <ele>417.685</ele>
        <time>2021-01-09T14:52:00Z</time>
      </trkpt>
      <trkpt lat="45.19779" lon="5.72502">
        <ele>418.299</ele>
        <time>2021-01-09T14:52:06Z</time>
      </trkpt>
      <trkpt lat="45.19778" lon="5.72511">
        <ele>416.386</ele>
        <time>2021-01-09T14:52:13Z</time>
      </trkpt>
      <trkpt lat="45.19774" lon="5.72518">
        <ele>415.869</ele>
        <time>2021-01-09T14:52:18Z</time>
      </trkpt>
      <trkpt lat="45.19768" lon="5.72526">
        <ele>415.625</ele>
        <time>2021-01-09T14:52:24Z</time>
      </trkpt>
      <trkpt lat="45.19766" lon="5.72536">
        <ele>415.756</ele>
        <time>2021-01-09T14:52:30Z</time>
      </trkpt>
      <trkpt lat="45.19766" lon="5.72545">
        <ele>415.872</ele>
        <time>2021-01-09T14:52:36Z</time>
      </trkpt>
      <trkpt lat="45.19766" lon="5.72555">
        <ele>415.943</ele>
        <time>2021-01-09T14:52:42Z</time>
      </trkpt>
      <trkpt lat="45.19766" lon="5.72564">
        <ele>417.892</ele>
        <time>2021-01-09T14:52:47Z</time>
      </trkpt>
      <trkpt lat="45.19765" lon="5.72574">
        <ele>420.381</ele>
        <time>2021-01-09T14:52:52Z</time>
      </trkpt>
      <trkpt lat="45.19765" lon="5.72585">
        <ele>422.056</ele>
        <time>2021-01-09T14:52:58Z</time>
      </trkpt>
      <trkpt lat="45.1977" lon="5.72592">
        <ele>422.723</ele>
        <time>2021-01-09T14:53:06Z</time>
      </trkpt>
      <trkpt lat="45.19775" lon="5.72586">
        <ele>421.566</ele>
        <time>2021-01-09T14:53:11Z</time>
      </trkpt>
      <trkpt lat="45.19778" lon="5.72577">
        <ele>422.255</ele>
        <time>2021-01-09T14:53:16Z</time>
      </trkpt>
      <trkpt lat="45.1978" lon="5.72567">
        <ele>423.091</ele>
        <time>2021-01-09T14:53:22Z</time>
      </trkpt>
      <trkpt lat="45.19783" lon="5.72558">
        <ele>423.766</ele>
        <time>2021-01-09T14:53:28Z</time>
      </trkpt>
      <trkpt lat="45.19786" lon="5.72549">
        <ele>425.671</ele>
        <time>2021-01-09T14:53:34Z</time>
      </trkpt>
      <trkpt lat="45.19788" lon="5.72539">
        <ele>427.803</ele>
        <time>2021-01-09T14:53:39Z</time>
      </trkpt>
      <trkpt lat="45.1979" lon="5.72529">
        <ele>430.653</ele>
        <time>2021-01-09T14:53:45Z</time>
      </trkpt>
      <trkpt lat="45.19798" lon="5.7253">
        <ele>429.364</ele>
        <time>2021-01-09T14:53:52Z</time>
      </trkpt>
      <trkpt lat="45.19797" lon="5.72542">
        <ele>427.928</ele>
        <time>2021-01-09T14:53:57Z</time>
      </trkpt>
      <trkpt lat="45.19794" lon="5.72552">
        <ele>428.826</ele>
        <time>2021-01-09T14:54:03Z</time>
      </trkpt>
      <trkpt lat="45.19792" lon="5.72562">
        <ele>429.478</ele>
        <time>2021-01-09T14:54:09Z</time>
      </trkpt>
      <trkpt lat="45.19791" lon="5.72573">
        <ele>430.743</ele>
        <time>2021-01-09T14:54:15Z</time>
      </trkpt>
      <trkpt lat="45.1979" lon="5.72583">
        <ele>431.698</ele>
        <time>2021-01-09T14:54:21Z</time>
      </trkpt>
      <trkpt lat="45.1979" lon="5.72594">
        <ele>433.2</ele>
        <time>2021-01-09T14:54:27Z</time>
      </trkpt>
      <trkpt lat="45.19789" lon="5.72605">
        <ele>436.699</ele>
        <time>2021-01-09T14:54:32Z</time>
      </trkpt>
      <trkpt lat="45.1979" lon="5.72614">
        <ele>440.008</ele>
        <time>2021-01-09T14:54:37Z</time>
      </trkpt>
      <trkpt lat="45.19791" lon="5.72624">
        <ele>442.118</ele>
        <time>2021-01-09T14:54:43Z</time>
      </trkpt>
      <trkpt lat="45.19797" lon="5.72628">
        <ele>442.277</ele>
        <time>2021-01-09T14:54:49Z</time>
      </trkpt>
      <trkpt lat="45.19804" lon="5.72633">
        <ele>440.859</ele>
        <time>2021-01-09T14:54:55Z</time>
      </trkpt>
      <trkpt lat="45.19811" lon="5.72636">
        <ele>439.773</ele>
        <time>2021-01-09T14:55:01Z</time>
      </trkpt>
      <trkpt lat="45.19815" lon="5.72643">
        <ele>439.254</ele>
        <time>2021-01-09T14:55:08Z</time>
      </trkpt>
      <trkpt lat="45.19822" lon="5.72647">
        <ele>439.388</ele>
        <time>2021-01-09T14:55:14Z</time>
      </trkpt>
      <trkpt lat="45.19828" lon="5.72651">
        <ele>438.004</ele>
        <time>2021-01-09T14:55:19Z</time>
      </trkpt>
      <trkpt lat="45.19833" lon="5.72657">
        <ele>440.6</ele>
        <time>2021-01-09T14:55:24Z</time>
      </trkpt>
      <trkpt lat="45.19839" lon="5.72662">
        <ele>440.772</ele>
        <time>2021-01-09T14:55:30Z</time>
      </trkpt>
      <trkpt lat="45.19845" lon="5.72669">
        <ele>442.705</ele>
        <time>2021-01-09T14:55:35Z</time>
      </trkpt>
      <trkpt lat="45.1985" lon="5.72676">
        <ele>440.67</ele>
        <time>2021-01-09T14:55:42Z</time>
      </trkpt>
      <trkpt lat="45.19855" lon="5.72681">
        <ele>440.099</ele>
        <time>2021-01-09T14:55:50Z</time>
      </trkpt>
      <trkpt lat="45.19861" lon="5.72687">
        <ele>441.817</ele>
        <time>2021-01-09T14:55:55Z</time>
      </trkpt>
      <trkpt lat="45.19859" lon="5.72678">
        <ele>442.173</ele>
        <time>2021-01-09T14:56:09Z</time>
      </trkpt>
      <trkpt lat="45.19856" lon="5.7267">
        <ele>442.686</ele>
        <time>2021-01-09T14:56:15Z</time>
      </trkpt>
      <trkpt lat="45.19851" lon="5.72662">
        <ele>442.921</ele>
        <time>2021-01-09T14:56:21Z</time>
      </trkpt>
      <trkpt lat="45.19846" lon="5.72656">
        <ele>445.825</ele>
        <time>2021-01-09T14:56:26Z</time>
      </trkpt>
      <trkpt lat="45.19842" lon="5.72647">
        <ele>446.43</ele>
        <time>2021-01-09T14:56:32Z</time>
      </trkpt>
      <trkpt lat="45.19838" lon="5.72639">
        <ele>448.978</ele>
        <time>2021-01-09T14:56:37Z</time>
      </trkpt>
      <trkpt lat="45.19835" lon="5.7263">
        <ele>450.013</ele>
        <time>2021-01-09T14:56:43Z</time>
      </trkpt>
      <trkpt lat="45.19833" lon="5.72621">
        <ele>451.53</ele>
        <time>2021-01-09T14:56:49Z</time>
      </trkpt>
      <trkpt lat="45.19831" lon="5.7261">
        <ele>451.639</ele>
        <time>2021-01-09T14:56:55Z</time>
      </trkpt>
      <trkpt lat="45.1983" lon="5.72601">
        <ele>451.94</ele>
        <time>2021-01-09T14:57:01Z</time>
      </trkpt>
      <trkpt lat="45.19828" lon="5.72591">
        <ele>451.251</ele>
        <time>2021-01-09T14:57:07Z</time>
      </trkpt>
      <trkpt lat="45.19827" lon="5.72581">
        <ele>455.319</ele>
        <time>2021-01-09T14:57:13Z</time>
      </trkpt>
      <trkpt lat="45.19827" lon="5.72571">
        <ele>456.155</ele>
        <time>2021-01-09T14:57:19Z</time>
      </trkpt>
      <trkpt lat="45.19828" lon="5.7256">
        <ele>455.338</ele>
        <time>2021-01-09T14:57:26Z</time>
      </trkpt>
      <trkpt lat="45.19827" lon="5.72551">
        <ele>456.31</ele>
        <time>2021-01-09T14:57:32Z</time>
      </trkpt>
      <trkpt lat="45.19827" lon="5.72541">
        <ele>454.877</ele>
        <time>2021-01-09T14:57:37Z</time>
      </trkpt>
      <trkpt lat="45.1983" lon="5.72532">
        <ele>454.286</ele>
        <time>2021-01-09T14:57:43Z</time>
      </trkpt>
      <trkpt lat="45.19832" lon="5.72522">
        <ele>454.013</ele>
        <time>2021-01-09T14:57:49Z</time>
      </trkpt>
      <trkpt lat="45.19835" lon="5.72513">
        <ele>454.936</ele>
        <time>2021-01-09T14:57:55Z</time>
      </trkpt>
      <trkpt lat="45.19837" lon="5.72502">
        <ele>456.58</ele>
        <time>2021-01-09T14:58:01Z</time>
      </trkpt>
      <trkpt lat="45.19838" lon="5.72491">
        <ele>458.568</ele>
        <time>2021-01-09T14:58:07Z</time>
      </trkpt>
      <trkpt lat="45.1984" lon="5.72481">
        <ele>459.632</ele>
        <time>2021-01-09T14:58:13Z</time>
      </trkpt>
      <trkpt lat="45.19842" lon="5.72472">
        <ele>460.735</ele>
        <time>2021-01-09T14:58:19Z</time>
      </trkpt>
      <trkpt lat="45.19843" lon="5.72462">
        <ele>462.263</ele>
        <time>2021-01-09T14:58:24Z</time>
      </trkpt>
      <trkpt lat="45.19845" lon="5.72451">
        <ele>464.827</ele>
        <time>2021-01-09T14:58:30Z</time>
      </trkpt>
      <trkpt lat="45.19848" lon="5.72442">
        <ele>467.53</ele>
        <time>2021-01-09T14:58:36Z</time>
      </trkpt>
      <trkpt lat="45.19854" lon="5.72448">
        <ele>465.816</ele>
        <time>2021-01-09T14:58:44Z</time>
      </trkpt>
      <trkpt lat="45.19858" lon="5.72439">
        <ele>467.972</ele>
        <time>2021-01-09T14:58:54Z</time>
      </trkpt>
      <trkpt lat="45.19863" lon="5.72447">
        <ele>466.732</ele>
        <time>2021-01-09T14:59:13Z</time>
      </trkpt>
      <trkpt lat="45.19863" lon="5.72457">
        <ele>471.497</ele>
        <time>2021-01-09T14:59:22Z</time>
      </trkpt>
      <trkpt lat="45.19867" lon="5.72449">
        <ele>481.367</ele>
        <time>2021-01-09T15:00:55Z</time>
      </trkpt>
      <trkpt lat="45.19871" lon="5.72456">
        <ele>486.35</ele>
        <time>2021-01-09T15:01:04Z</time>
      </trkpt>
      <trkpt lat="45.19871" lon="5.72467">
        <ele>487.998</ele>
        <time>2021-01-09T15:01:12Z</time>
      </trkpt>
      <trkpt lat="45.19873" lon="5.72476">
        <ele>484.609</ele>
        <time>2021-01-09T15:01:19Z</time>
      </trkpt>
      <trkpt lat="45.19872" lon="5.72486">
        <ele>484.001</ele>
        <time>2021-01-09T15:01:25Z</time>
      </trkpt>
      <trkpt lat="45.19878" lon="5.7249">
        <ele>483.512</ele>
        <time>2021-01-09T15:01:35Z</time>
      </trkpt>
      <trkpt lat="45.19884" lon="5.72493">
        <ele>485.836</ele>
        <time>2021-01-09T15:01:51Z</time>
      </trkpt>
      <trkpt lat="45.19885" lon="5.72502">
        <ele>484.654</ele>
        <time>2021-01-09T15:01:56Z</time>
      </trkpt>
      <trkpt lat="45.19883" lon="5.72512">
        <ele>484.594</ele>
        <time>2021-01-09T15:02:03Z</time>
      </trkpt>
      <trkpt lat="45.19877" lon="5.72516">
        <ele>489.367</ele>
        <time>2021-01-09T15:02:39Z</time>
      </trkpt>
      <trkpt lat="45.19877" lon="5.72525">
        <ele>489.392</ele>
        <time>2021-01-09T15:02:46Z</time>
      </trkpt>
      <trkpt lat="45.19875" lon="5.72535">
        <ele>488.783</ele>
        <time>2021-01-09T15:02:53Z</time>
      </trkpt>
      <trkpt lat="45.19876" lon="5.72545">
        <ele>488.609</ele>
        <time>2021-01-09T15:03:01Z</time>
      </trkpt>
      <trkpt lat="45.19875" lon="5.72554">
        <ele>488.734</ele>
        <time>2021-01-09T15:03:07Z</time>
      </trkpt>
      <trkpt lat="45.19876" lon="5.72565">
        <ele>490.405</ele>
        <time>2021-01-09T15:03:14Z</time>
      </trkpt>
      <trkpt lat="45.19876" lon="5.72555">
        <ele>493.414</ele>
        <time>2021-01-09T15:04:14Z</time>
      </trkpt>
      <trkpt lat="45.19881" lon="5.72549">
        <ele>495.094</ele>
        <time>2021-01-09T15:04:27Z</time>
      </trkpt>
      <trkpt lat="45.19882" lon="5.7254">
        <ele>493.866</ele>
        <time>2021-01-09T15:04:59Z</time>
      </trkpt>
      <trkpt lat="45.1988" lon="5.7253">
        <ele>492.545</ele>
        <time>2021-01-09T15:05:08Z</time>
      </trkpt>
      <trkpt lat="45.19886" lon="5.72525">
        <ele>493.768</ele>
        <time>2021-01-09T15:05:17Z</time>
      </trkpt>
      <trkpt lat="45.19886" lon="5.72514">
        <ele>491.799</ele>
        <time>2021-01-09T15:05:25Z</time>
      </trkpt>
      <trkpt lat="45.19886" lon="5.72505">
        <ele>490.142</ele>
        <time>2021-01-09T15:05:32Z</time>
      </trkpt>
      <trkpt lat="45.19885" lon="5.72495">
        <ele>489.661</ele>
        <time>2021-01-09T15:05:38Z</time>
      </trkpt>
      <trkpt lat="45.19879" lon="5.72492">
        <ele>488.692</ele>
        <time>2021-01-09T15:05:48Z</time>
      </trkpt>
      <trkpt lat="45.19873" lon="5.72496">
        <ele>487.575</ele>
        <time>2021-01-09T15:05:56Z</time>
      </trkpt>
      <trkpt lat="45.19866" lon="5.72497">
        <ele>487.91</ele>
        <time>2021-01-09T15:06:06Z</time>
      </trkpt>
      <trkpt lat="45.19859" lon="5.72499">
        <ele>485.199</ele>
        <time>2021-01-09T15:06:14Z</time>
      </trkpt>
      <trkpt lat="45.19857" lon="5.72509">
        <ele>480.938</ele>
        <time>2021-01-09T15:06:21Z</time>
      </trkpt>
      <trkpt lat="45.19859" lon="5.72518">
        <ele>477.983</ele>
        <time>2021-01-09T15:06:26Z</time>
      </trkpt>
      <trkpt lat="45.1986" lon="5.72529">
        <ele>476.472</ele>
        <time>2021-01-09T15:06:32Z</time>
      </trkpt>
      <trkpt lat="45.1986" lon="5.72539">
        <ele>473.401</ele>
        <time>2021-01-09T15:06:38Z</time>
      </trkpt>
      <trkpt lat="45.19861" lon="5.72549">
        <ele>471.92</ele>
        <time>2021-01-09T15:06:44Z</time>
      </trkpt>
      <trkpt lat="45.19862" lon="5.72559">
        <ele>471.546</ele>
        <time>2021-01-09T15:06:50Z</time>
      </trkpt>
      <trkpt lat="45.19859" lon="5.72568">
        <ele>471.134</ele>
        <time>2021-01-09T15:07:03Z</time>
      </trkpt>
      <trkpt lat="45.19859" lon="5.72578">
        <ele>470.582</ele>
        <time>2021-01-09T15:07:09Z</time>
      </trkpt>
      <trkpt lat="45.1986" lon="5.72588">
        <ele>469.857</ele>
        <time>2021-01-09T15:07:15Z</time>
      </trkpt>
      <trkpt lat="45.19862" lon="5.72597">
        <ele>468.58</ele>
        <time>2021-01-09T15:07:21Z</time>
      </trkpt>
      <trkpt lat="45.19866" lon="5.72604">
        <ele>467.987</ele>
        <time>2021-01-09T15:07:27Z</time>
      </trkpt>
      <trkpt lat="45.1987" lon="5.72612">
        <ele>467.251</ele>
        <time>2021-01-09T15:07:32Z</time>
      </trkpt>
      <trkpt lat="45.19871" lon="5.72622">
        <ele>466.671</ele>
        <time>2021-01-09T15:07:38Z</time>
      </trkpt>
      <trkpt lat="45.19868" lon="5.72631">
        <ele>469.995</ele>
        <time>2021-01-09T15:07:44Z</time>
      </trkpt>
      <trkpt lat="45.19867" lon="5.7264">
        <ele>470.71</ele>
        <time>2021-01-09T15:07:50Z</time>
      </trkpt>
      <trkpt lat="45.1987" lon="5.72649">
        <ele>470.676</ele>
        <time>2021-01-09T15:07:57Z</time>
      </trkpt>
      <trkpt lat="45.19875" lon="5.72657">
        <ele>468.267</ele>
        <time>2021-01-09T15:08:04Z</time>
      </trkpt>
      <trkpt lat="45.19876" lon="5.72666">
        <ele>465.547</ele>
        <time>2021-01-09T15:08:10Z</time>
      </trkpt>
      <trkpt lat="45.19877" lon="5.72676">
        <ele>463.563</ele>
        <time>2021-01-09T15:08:18Z</time>
      </trkpt>
      <trkpt lat="45.19877" lon="5.72686">
        <ele>461.723</ele>
        <time>2021-01-09T15:08:25Z</time>
      </trkpt>
      <trkpt lat="45.19877" lon="5.72696">
        <ele>460.753</ele>
        <time>2021-01-09T15:08:33Z</time>
      </trkpt>
      <trkpt lat="45.19871" lon="5.72692">
        <ele>458.966</ele>
        <time>2021-01-09T15:08:40Z</time>
      </trkpt>
      <trkpt lat="45.19871" lon="5.72701">
        <ele>462.126</ele>
        <time>2021-01-09T15:08:49Z</time>
      </trkpt>
      <trkpt lat="45.19868" lon="5.72693">
        <ele>459.908</ele>
        <time>2021-01-09T15:09:12Z</time>
      </trkpt>
      <trkpt lat="45.1987" lon="5.72702">
        <ele>453.44</ele>
        <time>2021-01-09T15:09:40Z</time>
      </trkpt>
      <trkpt lat="45.1987" lon="5.72693">
        <ele>447.798</ele>
        <time>2021-01-09T15:09:53Z</time>
      </trkpt>
      <trkpt lat="45.19867" lon="5.72702">
        <ele>444.902</ele>
        <time>2021-01-09T15:10:02Z</time>
      </trkpt>
      <trkpt lat="45.19861" lon="5.72698">
        <ele>442.077</ele>
        <time>2021-01-09T15:10:14Z</time>
      </trkpt>
      <trkpt lat="45.19854" lon="5.72701">
        <ele>439.919</ele>
        <time>2021-01-09T15:10:29Z</time>
      </trkpt>
      <trkpt lat="45.19855" lon="5.72711">
        <ele>434.464</ele>
        <time>2021-01-09T15:10:42Z</time>
      </trkpt>
      <trkpt lat="45.1986" lon="5.72719">
        <ele>431.558</ele>
        <time>2021-01-09T15:10:49Z</time>
      </trkpt>
      <trkpt lat="45.19854" lon="5.72724">
        <ele>427.901</ele>
        <time>2021-01-09T15:11:07Z</time>
      </trkpt>
      <trkpt lat="45.19847" lon="5.72722">
        <ele>426.703</ele>
        <time>2021-01-09T15:11:17Z</time>
      </trkpt>
      <trkpt lat="45.19841" lon="5.72726">
        <ele>424.882</ele>
        <time>2021-01-09T15:11:27Z</time>
      </trkpt>
      <trkpt lat="45.19835" lon="5.72721">
        <ele>423.839</ele>
        <time>2021-01-09T15:11:38Z</time>
      </trkpt>
      <trkpt lat="45.19834" lon="5.72732">
        <ele>417.852</ele>
        <time>2021-01-09T15:11:47Z</time>
      </trkpt>
      <trkpt lat="45.19837" lon="5.72741">
        <ele>416.151</ele>
        <time>2021-01-09T15:11:54Z</time>
      </trkpt>
      <trkpt lat="45.19843" lon="5.72746">
        <ele>415.347</ele>
        <time>2021-01-09T15:12:00Z</time>
      </trkpt>
      <trkpt lat="45.19849" lon="5.72741">
        <ele>416.125</ele>
        <time>2021-01-09T15:12:06Z</time>
      </trkpt>
      <trkpt lat="45.19855" lon="5.72735">
        <ele>415.605</ele>
        <time>2021-01-09T15:12:11Z</time>
      </trkpt>
      <trkpt lat="45.19861" lon="5.72735">
        <ele>420.111</ele>
        <time>2021-01-09T15:12:16Z</time>
      </trkpt>
      <trkpt lat="45.19866" lon="5.72742">
        <ele>414.526</ele>
        <time>2021-01-09T15:12:22Z</time>
      </trkpt>
      <trkpt lat="45.19866" lon="5.72753">
        <ele>408.841</ele>
        <time>2021-01-09T15:12:28Z</time>
      </trkpt>
      <trkpt lat="45.19864" lon="5.72762">
        <ele>410.129</ele>
        <time>2021-01-09T15:12:34Z</time>
      </trkpt>
      <trkpt lat="45.1986" lon="5.72773">
        <ele>414.576</ele>
        <time>2021-01-09T15:12:39Z</time>
      </trkpt>
      <trkpt lat="45.19856" lon="5.7276">
        <ele>414.231</ele>
        <time>2021-01-09T15:12:44Z</time>
      </trkpt>
      <trkpt lat="45.19858" lon="5.7275">
        <ele>405.278</ele>
        <time>2021-01-09T15:12:50Z</time>
      </trkpt>
      <trkpt lat="45.19853" lon="5.72757">
        <ele>406.002</ele>
        <time>2021-01-09T15:12:57Z</time>
      </trkpt>
      <trkpt lat="45.1986" lon="5.72758">
        <ele>403.975</ele>
        <time>2021-01-09T15:13:04Z</time>
      </trkpt>
      <trkpt lat="45.19865" lon="5.72767">
        <ele>403.9</ele>
        <time>2021-01-09T15:13:09Z</time>
      </trkpt>
      <trkpt lat="45.19859" lon="5.72763">
        <ele>406.795</ele>
        <time>2021-01-09T15:13:29Z</time>
      </trkpt>
      <trkpt lat="45.19853" lon="5.72758">
        <ele>407.248</ele>
        <time>2021-01-09T15:13:35Z</time>
      </trkpt>
      <trkpt lat="45.19847" lon="5.72754">
        <ele>407.701</ele>
        <time>2021-01-09T15:13:41Z</time>
      </trkpt>
      <trkpt lat="45.19852" lon="5.72761">
        <ele>395.924</ele>
        <time>2021-01-09T15:13:47Z</time>
      </trkpt>
      <trkpt lat="45.19859" lon="5.72771">
        <ele>391.979</ele>
        <time>2021-01-09T15:13:52Z</time>
      </trkpt>
      <trkpt lat="45.19852" lon="5.72773">
        <ele>392.046</ele>
        <time>2021-01-09T15:14:01Z</time>
      </trkpt>
      <trkpt lat="45.19856" lon="5.72782">
        <ele>388.981</ele>
        <time>2021-01-09T15:14:13Z</time>
      </trkpt>
      <trkpt lat="45.19849" lon="5.72779">
        <ele>387.347</ele>
        <time>2021-01-09T15:14:19Z</time>
      </trkpt>
      <trkpt lat="45.19843" lon="5.72774">
        <ele>386.331</ele>
        <time>2021-01-09T15:14:24Z</time>
      </trkpt>
      <trkpt lat="45.19837" lon="5.72769">
        <ele>385.605</ele>
        <time>2021-01-09T15:14:29Z</time>
      </trkpt>
      <trkpt lat="45.1983" lon="5.72765">
        <ele>385.18</ele>
        <time>2021-01-09T15:14:34Z</time>
      </trkpt>
      <trkpt lat="45.19823" lon="5.72762">
        <ele>385.525</ele>
        <time>2021-01-09T15:14:39Z</time>
      </trkpt>
      <trkpt lat="45.19817" lon="5.72757">
        <ele>385.653</ele>
        <time>2021-01-09T15:14:44Z</time>
      </trkpt>
      <trkpt lat="45.19813" lon="5.72749">
        <ele>384.46</ele>
        <time>2021-01-09T15:14:49Z</time>
      </trkpt>
      <trkpt lat="45.19807" lon="5.72744">
        <ele>384.45</ele>
        <time>2021-01-09T15:14:54Z</time>
      </trkpt>
      <trkpt lat="45.19801" lon="5.72739">
        <ele>383.892</ele>
        <time>2021-01-09T15:14:59Z</time>
      </trkpt>
      <trkpt lat="45.19795" lon="5.72734">
        <ele>382.141</ele>
        <time>2021-01-09T15:15:04Z</time>
      </trkpt>
      <trkpt lat="45.19793" lon="5.72744">
        <ele>379.384</ele>
        <time>2021-01-09T15:15:11Z</time>
      </trkpt>
      <trkpt lat="45.19799" lon="5.72747">
        <ele>377.627</ele>
        <time>2021-01-09T15:15:16Z</time>
      </trkpt>
      <trkpt lat="45.19805" lon="5.72753">
        <ele>375.98</ele>
        <time>2021-01-09T15:15:22Z</time>
      </trkpt>
      <trkpt lat="45.1981" lon="5.72761">
        <ele>373.393</ele>
        <time>2021-01-09T15:15:28Z</time>
      </trkpt>
      <trkpt lat="45.19814" lon="5.7277">
        <ele>371.623</ele>
        <time>2021-01-09T15:15:34Z</time>
      </trkpt>
      <trkpt lat="45.19819" lon="5.72777">
        <ele>371.252</ele>
        <time>2021-01-09T15:15:39Z</time>
      </trkpt>
      <trkpt lat="45.19824" lon="5.72784">
        <ele>370.91</ele>
        <time>2021-01-09T15:15:44Z</time>
      </trkpt>
      <trkpt lat="45.1983" lon="5.72789">
        <ele>370.568</ele>
        <time>2021-01-09T15:15:49Z</time>
      </trkpt>
      <trkpt lat="45.19836" lon="5.72795">
        <ele>369.842</ele>
        <time>2021-01-09T15:15:54Z</time>
      </trkpt>
      <trkpt lat="45.19842" lon="5.72799">
        <ele>368.698</ele>
        <time>2021-01-09T15:16:00Z</time>
      </trkpt>
      <trkpt lat="45.19835" lon="5.72801">
        <ele>369.193</ele>
        <time>2021-01-09T15:16:11Z</time>
      </trkpt>
      <trkpt lat="45.19829" lon="5.72795">
        <ele>368.749</ele>
        <time>2021-01-09T15:16:17Z</time>
      </trkpt>
      <trkpt lat="45.19823" lon="5.72792">
        <ele>367.71</ele>
        <time>2021-01-09T15:16:22Z</time>
      </trkpt>
      <trkpt lat="45.19817" lon="5.72788">
        <ele>366.86</ele>
        <time>2021-01-09T15:16:27Z</time>
      </trkpt>
      <trkpt lat="45.1981" lon="5.72784">
        <ele>366.51</ele>
        <time>2021-01-09T15:16:32Z</time>
      </trkpt>
      <trkpt lat="45.19803" lon="5.7278">
        <ele>366.441</ele>
        <time>2021-01-09T15:16:37Z</time>
      </trkpt>
      <trkpt lat="45.19802" lon="5.72789">
        <ele>365.476</ele>
        <time>2021-01-09T15:16:45Z</time>
      </trkpt>
      <trkpt lat="45.19808" lon="5.72795">
        <ele>362.743</ele>
        <time>2021-01-09T15:16:51Z</time>
      </trkpt>
      <trkpt lat="45.19815" lon="5.72797">
        <ele>359.414</ele>
        <time>2021-01-09T15:16:57Z</time>
      </trkpt>
      <trkpt lat="45.19821" lon="5.72803">
        <ele>357.867</ele>
        <time>2021-01-09T15:17:03Z</time>
      </trkpt>
      <trkpt lat="45.19827" lon="5.72809">
        <ele>355.289</ele>
        <time>2021-01-09T15:17:09Z</time>
      </trkpt>
      <trkpt lat="45.19834" lon="5.72814">
        <ele>352.897</ele>
        <time>2021-01-09T15:17:15Z</time>
      </trkpt>
      <trkpt lat="45.19839" lon="5.72818">
        <ele>351.394</ele>
        <time>2021-01-09T15:17:20Z</time>
      </trkpt>
      <trkpt lat="45.19842" lon="5.72827">
        <ele>351.643</ele>
        <time>2021-01-09T15:17:26Z</time>
      </trkpt>
      <trkpt lat="45.19836" lon="5.72824">
        <ele>352.981</ele>
        <time>2021-01-09T15:17:33Z</time>
      </trkpt>
      <trkpt lat="45.19829" lon="5.7282">
        <ele>353.027</ele>
        <time>2021-01-09T15:17:39Z</time>
      </trkpt>
      <trkpt lat="45.19823" lon="5.72816">
        <ele>353.276</ele>
        <time>2021-01-09T15:17:44Z</time>
      </trkpt>
      <trkpt lat="45.19826" lon="5.72825">
        <ele>349.761</ele>
        <time>2021-01-09T15:17:58Z</time>
      </trkpt>
      <trkpt lat="45.19833" lon="5.72827">
        <ele>348.652</ele>
        <time>2021-01-09T15:18:03Z</time>
      </trkpt>
      <trkpt lat="45.19829" lon="5.72835">
        <ele>349.054</ele>
        <time>2021-01-09T15:18:12Z</time>
      </trkpt>
      <trkpt lat="45.19822" lon="5.72832">
        <ele>349.155</ele>
        <time>2021-01-09T15:18:18Z</time>
      </trkpt>
      <trkpt lat="45.19816" lon="5.72824">
        <ele>347.47</ele>
        <time>2021-01-09T15:18:24Z</time>
      </trkpt>
      <trkpt lat="45.1981" lon="5.72821">
        <ele>347.806</ele>
        <time>2021-01-09T15:18:29Z</time>
      </trkpt>
      <trkpt lat="45.19803" lon="5.72817">
        <ele>347.296</ele>
        <time>2021-01-09T15:18:34Z</time>
      </trkpt>
      <trkpt lat="45.19798" lon="5.72812">
        <ele>346.181</ele>
        <time>2021-01-09T15:18:39Z</time>
      </trkpt>
      <trkpt lat="45.19802" lon="5.7282">
        <ele>343.821</ele>
        <time>2021-01-09T15:18:52Z</time>
      </trkpt>
      <trkpt lat="45.19807" lon="5.72826">
        <ele>343.418</ele>
        <time>2021-01-09T15:18:57Z</time>
      </trkpt>
      <trkpt lat="45.19813" lon="5.72832">
        <ele>341.259</ele>
        <time>2021-01-09T15:19:03Z</time>
      </trkpt>
      <trkpt lat="45.19819" lon="5.72837">
        <ele>339.866</ele>
        <time>2021-01-09T15:19:08Z</time>
      </trkpt>
      <trkpt lat="45.19823" lon="5.72843">
        <ele>339.121</ele>
        <time>2021-01-09T15:19:13Z</time>
      </trkpt>
      <trkpt lat="45.19816" lon="5.72845">
        <ele>342.23</ele>
        <time>2021-01-09T15:19:22Z</time>
      </trkpt>
      <trkpt lat="45.1981" lon="5.7284">
        <ele>341.509</ele>
        <time>2021-01-09T15:19:27Z</time>
      </trkpt>
      <trkpt lat="45.19804" lon="5.72837">
        <ele>340.741</ele>
        <time>2021-01-09T15:19:32Z</time>
      </trkpt>
      <trkpt lat="45.19798" lon="5.72832">
        <ele>337.651</ele>
        <time>2021-01-09T15:19:38Z</time>
      </trkpt>
      <trkpt lat="45.19791" lon="5.7283">
        <ele>338.205</ele>
        <time>2021-01-09T15:19:43Z</time>
      </trkpt>
      <trkpt lat="45.19785" lon="5.72826">
        <ele>337.258</ele>
        <time>2021-01-09T15:19:48Z</time>
      </trkpt>
      <trkpt lat="45.19778" lon="5.72823">
        <ele>337.271</ele>
        <time>2021-01-09T15:19:53Z</time>
      </trkpt>
      <trkpt lat="45.19771" lon="5.7282">
        <ele>338.153</ele>
        <time>2021-01-09T15:19:58Z</time>
      </trkpt>
      <trkpt lat="45.19765" lon="5.72814">
        <ele>338.282</ele>
        <time>2021-01-09T15:20:03Z</time>
      </trkpt>
      <trkpt lat="45.1976" lon="5.72809">
        <ele>336.363</ele>
        <time>2021-01-09T15:20:08Z</time>
      </trkpt>
      <trkpt lat="45.19759" lon="5.72818">
        <ele>333.371</ele>
        <time>2021-01-09T15:20:20Z</time>
      </trkpt>
      <trkpt lat="45.19764" lon="5.72825">
        <ele>330.621</ele>
        <time>2021-01-09T15:20:26Z</time>
      </trkpt>
      <trkpt lat="45.1977" lon="5.72832">
        <ele>328.667</ele>
        <time>2021-01-09T15:20:32Z</time>
      </trkpt>
      <trkpt lat="45.19776" lon="5.72838">
        <ele>327.97</ele>
        <time>2021-01-09T15:20:38Z</time>
      </trkpt>
      <trkpt lat="45.19781" lon="5.72844">
        <ele>325.403</ele>
        <time>2021-01-09T15:20:43Z</time>
      </trkpt>
      <trkpt lat="45.19786" lon="5.72851">
        <ele>324.24</ele>
        <time>2021-01-09T15:20:48Z</time>
      </trkpt>
      <trkpt lat="45.1979" lon="5.72858">
        <ele>324.261</ele>
        <time>2021-01-09T15:20:53Z</time>
      </trkpt>
      <trkpt lat="45.19796" lon="5.72863">
        <ele>322.369</ele>
        <time>2021-01-09T15:20:58Z</time>
      </trkpt>
      <trkpt lat="45.19803" lon="5.72868">
        <ele>321.968</ele>
        <time>2021-01-09T15:21:03Z</time>
      </trkpt>
      <trkpt lat="45.19809" lon="5.72874">
        <ele>321.021</ele>
        <time>2021-01-09T15:21:08Z</time>
      </trkpt>
      <trkpt lat="45.19804" lon="5.7288">
        <ele>321.597</ele>
        <time>2021-01-09T15:21:14Z</time>
      </trkpt>
      <trkpt lat="45.19797" lon="5.72877">
        <ele>322.484</ele>
        <time>2021-01-09T15:21:20Z</time>
      </trkpt>
      <trkpt lat="45.1979" lon="5.72873">
        <ele>322.575</ele>
        <time>2021-01-09T15:21:25Z</time>
      </trkpt>
      <trkpt lat="45.19784" lon="5.72869">
        <ele>321.098</ele>
        <time>2021-01-09T15:21:30Z</time>
      </trkpt>
      <trkpt lat="45.19777" lon="5.72864">
        <ele>319.593</ele>
        <time>2021-01-09T15:21:35Z</time>
      </trkpt>
      <trkpt lat="45.19771" lon="5.7286">
        <ele>319.926</ele>
        <time>2021-01-09T15:21:40Z</time>
      </trkpt>
      <trkpt lat="45.19764" lon="5.72857">
        <ele>318.062</ele>
        <time>2021-01-09T15:21:45Z</time>
      </trkpt>
      <trkpt lat="45.19758" lon="5.72852">
        <ele>316.653</ele>
        <time>2021-01-09T15:21:50Z</time>
      </trkpt>
      <trkpt lat="45.19751" lon="5.72847">
        <ele>317.399</ele>
        <time>2021-01-09T15:21:55Z</time>
      </trkpt>
      <trkpt lat="45.19744" lon="5.72843">
        <ele>317.102</ele>
        <time>2021-01-09T15:22:00Z</time>
      </trkpt>
      <trkpt lat="45.19748" lon="5.72852">
        <ele>314.794</ele>
        <time>2021-01-09T15:22:09Z</time>
      </trkpt>
      <trkpt lat="45.19753" lon="5.72859">
        <ele>312.954</ele>
        <time>2021-01-09T15:22:15Z</time>
      </trkpt>
      <trkpt lat="45.19758" lon="5.72866">
        <ele>312.559</ele>
        <time>2021-01-09T15:22:20Z</time>
      </trkpt>
      <trkpt lat="45.19763" lon="5.72873">
        <ele>311.182</ele>
        <time>2021-01-09T15:22:25Z</time>
      </trkpt>
      <trkpt lat="45.19768" lon="5.7288">
        <ele>310.872</ele>
        <time>2021-01-09T15:22:30Z</time>
      </trkpt>
      <trkpt lat="45.19773" lon="5.72887">
        <ele>310.403</ele>
        <time>2021-01-09T15:22:35Z</time>
      </trkpt>
      <trkpt lat="45.19778" lon="5.72893">
        <ele>308.707</ele>
        <time>2021-01-09T15:22:40Z</time>
      </trkpt>
      <trkpt lat="45.19784" lon="5.72901">
        <ele>306.9</ele>
        <time>2021-01-09T15:22:46Z</time>
      </trkpt>
      <trkpt lat="45.19789" lon="5.72908">
        <ele>306.586</ele>
        <time>2021-01-09T15:22:51Z</time>
      </trkpt>
      <trkpt lat="45.19795" lon="5.72916">
        <ele>306.493</ele>
        <time>2021-01-09T15:22:56Z</time>
      </trkpt>
      <trkpt lat="45.19801" lon="5.72923">
        <ele>306.23</ele>
        <time>2021-01-09T15:23:01Z</time>
      </trkpt>
      <trkpt lat="45.19795" lon="5.72926">
        <ele>307.046</ele>
        <time>2021-01-09T15:23:08Z</time>
      </trkpt>
      <trkpt lat="45.19788" lon="5.72921">
        <ele>305.324</ele>
        <time>2021-01-09T15:23:13Z</time>
      </trkpt>
      <trkpt lat="45.19781" lon="5.72917">
        <ele>304.456</ele>
        <time>2021-01-09T15:23:18Z</time>
      </trkpt>
      <trkpt lat="45.19775" lon="5.72912">
        <ele>304.599</ele>
        <time>2021-01-09T15:23:23Z</time>
      </trkpt>
      <trkpt lat="45.19769" lon="5.72907">
        <ele>302.87</ele>
        <time>2021-01-09T15:23:28Z</time>
      </trkpt>
      <trkpt lat="45.19762" lon="5.72904">
        <ele>302.396</ele>
        <time>2021-01-09T15:23:33Z</time>
      </trkpt>
      <trkpt lat="45.19755" lon="5.72899">
        <ele>300.599</ele>
        <time>2021-01-09T15:23:38Z</time>
      </trkpt>
      <trkpt lat="45.19749" lon="5.72895">
        <ele>301.118</ele>
        <time>2021-01-09T15:23:43Z</time>
      </trkpt>
      <trkpt lat="45.19743" lon="5.7289">
        <ele>300.755</ele>
        <time>2021-01-09T15:23:48Z</time>
      </trkpt>
      <trkpt lat="45.19736" lon="5.72885">
        <ele>298.409</ele>
        <time>2021-01-09T15:23:53Z</time>
      </trkpt>
      <trkpt lat="45.19729" lon="5.72882">
        <ele>299.439</ele>
        <time>2021-01-09T15:23:58Z</time>
      </trkpt>
      <trkpt lat="45.19723" lon="5.7288">
        <ele>299.844</ele>
        <time>2021-01-09T15:24:03Z</time>
      </trkpt>
      <trkpt lat="45.19716" lon="5.72876">
        <ele>299.077</ele>
        <time>2021-01-09T15:24:08Z</time>
      </trkpt>
      <trkpt lat="45.19711" lon="5.7287">
        <ele>296.993</ele>
        <time>2021-01-09T15:24:13Z</time>
      </trkpt>
      <trkpt lat="45.19706" lon="5.72863">
        <ele>295.609</ele>
        <time>2021-01-09T15:24:18Z</time>
      </trkpt>
      <trkpt lat="45.197" lon="5.72856">
        <ele>293.583</ele>
        <time>2021-01-09T15:24:23Z</time>
      </trkpt>
      <trkpt lat="45.19695" lon="5.72851">
        <ele>292.799</ele>
        <time>2021-01-09T15:24:28Z</time>
      </trkpt>
      <trkpt lat="45.19695" lon="5.72862">
        <ele>290.116</ele>
        <time>2021-01-09T15:24:35Z</time>
      </trkpt>
      <trkpt lat="45.19698" lon="5.7287">
        <ele>288.866</ele>
        <time>2021-01-09T15:24:40Z</time>
      </trkpt>
      <trkpt lat="45.19702" lon="5.7288">
        <ele>287.202</ele>
        <time>2021-01-09T15:24:46Z</time>
      </trkpt>
      <trkpt lat="45.19707" lon="5.72888">
        <ele>284.982</ele>
        <time>2021-01-09T15:24:52Z</time>
      </trkpt>
      <trkpt lat="45.19711" lon="5.72895">
        <ele>283.193</ele>
        <time>2021-01-09T15:24:57Z</time>
      </trkpt>
      <trkpt lat="45.19715" lon="5.72903">
        <ele>282.067</ele>
        <time>2021-01-09T15:25:02Z</time>
      </trkpt>
      <trkpt lat="45.1972" lon="5.72911">
        <ele>280.832</ele>
        <time>2021-01-09T15:25:07Z</time>
      </trkpt>
      <trkpt lat="45.19725" lon="5.72919">
        <ele>279.834</ele>
        <time>2021-01-09T15:25:12Z</time>
      </trkpt>
      <trkpt lat="45.19729" lon="5.72928">
        <ele>278.692</ele>
        <time>2021-01-09T15:25:17Z</time>
      </trkpt>
      <trkpt lat="45.19734" lon="5.72935">
        <ele>277.836</ele>
        <time>2021-01-09T15:25:22Z</time>
      </trkpt>
      <trkpt lat="45.19739" lon="5.72942">
        <ele>275.968</ele>
        <time>2021-01-09T15:25:27Z</time>
      </trkpt>
      <trkpt lat="45.19744" lon="5.7295">
        <ele>274.527</ele>
        <time>2021-01-09T15:25:32Z</time>
      </trkpt>
      <trkpt lat="45.1975" lon="5.72956">
        <ele>273.981</ele>
        <time>2021-01-09T15:25:37Z</time>
      </trkpt>
      <trkpt lat="45.19755" lon="5.72963">
        <ele>272.927</ele>
        <time>2021-01-09T15:25:42Z</time>
      </trkpt>
      <trkpt lat="45.1976" lon="5.72972">
        <ele>271.899</ele>
        <time>2021-01-09T15:25:47Z</time>
      </trkpt>
      <trkpt lat="45.19765" lon="5.72978">
        <ele>271.312</ele>
        <time>2021-01-09T15:25:52Z</time>
      </trkpt>
      <trkpt lat="45.19771" lon="5.72985">
        <ele>270.113</ele>
        <time>2021-01-09T15:25:57Z</time>
      </trkpt>
      <trkpt lat="45.19777" lon="5.7299">
        <ele>269.616</ele>
        <time>2021-01-09T15:26:02Z</time>
      </trkpt>
      <trkpt lat="45.19783" lon="5.72994">
        <ele>267.714</ele>
        <time>2021-01-09T15:26:07Z</time>
      </trkpt>
      <trkpt lat="45.19789" lon="5.73001">
        <ele>266.622</ele>
        <time>2021-01-09T15:26:12Z</time>
      </trkpt>
      <trkpt lat="45.19795" lon="5.73005">
        <ele>266.688</ele>
        <time>2021-01-09T15:26:17Z</time>
      </trkpt>
      <trkpt lat="45.19802" lon="5.73009">
        <ele>266.775</ele>
        <time>2021-01-09T15:26:22Z</time>
      </trkpt>
      <trkpt lat="45.19808" lon="5.73014">
        <ele>267.734</ele>
        <time>2021-01-09T15:26:27Z</time>
      </trkpt>
      <trkpt lat="45.19812" lon="5.73022">
        <ele>267.913</ele>
        <time>2021-01-09T15:26:33Z</time>
      </trkpt>
      <trkpt lat="45.19805" lon="5.73021">
        <ele>268.458</ele>
        <time>2021-01-09T15:26:38Z</time>
      </trkpt>
      <trkpt lat="45.19798" lon="5.73018">
        <ele>268.323</ele>
        <time>2021-01-09T15:26:44Z</time>
      </trkpt>
      <trkpt lat="45.19791" lon="5.73016">
        <ele>267.323</ele>
        <time>2021-01-09T15:26:49Z</time>
      </trkpt>
      <trkpt lat="45.19784" lon="5.73012">
        <ele>265.646</ele>
        <time>2021-01-09T15:26:54Z</time>
      </trkpt>
      <trkpt lat="45.19778" lon="5.73008">
        <ele>264.179</ele>
        <time>2021-01-09T15:26:59Z</time>
      </trkpt>
      <trkpt lat="45.1977" lon="5.73008">
        <ele>263.839</ele>
        <time>2021-01-09T15:27:04Z</time>
      </trkpt>
      <trkpt lat="45.1977" lon="5.73018">
        <ele>262.505</ele>
        <time>2021-01-09T15:27:11Z</time>
      </trkpt>
      <trkpt lat="45.19778" lon="5.73021">
        <ele>261.536</ele>
        <time>2021-01-09T15:27:17Z</time>
      </trkpt>
      <trkpt lat="45.19785" lon="5.73023">
        <ele>261.092</ele>
        <time>2021-01-09T15:27:22Z</time>
      </trkpt>
      <trkpt lat="45.19792" lon="5.73027">
        <ele>259.732</ele>
        <time>2021-01-09T15:27:28Z</time>
      </trkpt>
      <trkpt lat="45.19798" lon="5.73031">
        <ele>257.198</ele>
        <time>2021-01-09T15:27:33Z</time>
      </trkpt>
      <trkpt lat="45.19805" lon="5.73035">
        <ele>255.383</ele>
        <time>2021-01-09T15:27:38Z</time>
      </trkpt>
      <trkpt lat="45.19799" lon="5.73041">
        <ele>256.352</ele>
        <time>2021-01-09T15:27:48Z</time>
      </trkpt>
      <trkpt lat="45.19793" lon="5.73038">
        <ele>255.177</ele>
        <time>2021-01-09T15:27:53Z</time>
      </trkpt>
      <trkpt lat="45.19786" lon="5.73034">
        <ele>254.376</ele>
        <time>2021-01-09T15:27:58Z</time>
      </trkpt>
      <trkpt lat="45.19779" lon="5.73033">
        <ele>254.384</ele>
        <time>2021-01-09T15:28:03Z</time>
      </trkpt>
      <trkpt lat="45.19772" lon="5.73031">
        <ele>253.374</ele>
        <time>2021-01-09T15:28:08Z</time>
      </trkpt>
      <trkpt lat="45.19765" lon="5.73029">
        <ele>252.521</ele>
        <time>2021-01-09T15:28:13Z</time>
      </trkpt>
      <trkpt lat="45.19759" lon="5.73029">
        <ele>251.272</ele>
        <time>2021-01-09T15:28:18Z</time>
      </trkpt>
      <trkpt lat="45.19763" lon="5.73036">
        <ele>251.241</ele>
        <time>2021-01-09T15:28:24Z</time>
      </trkpt>
      <trkpt lat="45.1977" lon="5.73039">
        <ele>249.936</ele>
        <time>2021-01-09T15:28:30Z</time>
      </trkpt>
      <trkpt lat="45.19777" lon="5.73044">
        <ele>248.11</ele>
        <time>2021-01-09T15:28:36Z</time>
      </trkpt>
      <trkpt lat="45.19783" lon="5.73048">
        <ele>247.51</ele>
        <time>2021-01-09T15:28:41Z</time>
      </trkpt>
      <trkpt lat="45.1979" lon="5.73051">
        <ele>247.022</ele>
        <time>2021-01-09T15:28:46Z</time>
      </trkpt>
      <trkpt lat="45.19796" lon="5.73055">
        <ele>246.015</ele>
        <time>2021-01-09T15:28:51Z</time>
      </trkpt>
      <trkpt lat="45.19791" lon="5.7306">
        <ele>243.427</ele>
        <time>2021-01-09T15:29:04Z</time>
      </trkpt>
      <trkpt lat="45.19784" lon="5.73059">
        <ele>241.897</ele>
        <time>2021-01-09T15:29:09Z</time>
      </trkpt>
      <trkpt lat="45.19778" lon="5.73057">
        <ele>240.392</ele>
        <time>2021-01-09T15:29:15Z</time>
      </trkpt>
      <trkpt lat="45.19771" lon="5.73055">
        <ele>240.817</ele>
        <time>2021-01-09T15:29:20Z</time>
      </trkpt>
      <trkpt lat="45.19763" lon="5.73054">
        <ele>240.029</ele>
        <time>2021-01-09T15:29:25Z</time>
      </trkpt>
      <trkpt lat="45.19755" lon="5.73054">
        <ele>240.786</ele>
        <time>2021-01-09T15:29:30Z</time>
      </trkpt>
      <trkpt lat="45.19758" lon="5.73063">
        <ele>240.217</ele>
        <time>2021-01-09T15:29:40Z</time>
      </trkpt>
      <trkpt lat="45.19765" lon="5.73067">
        <ele>240.977</ele>
        <time>2021-01-09T15:29:46Z</time>
      </trkpt>
      <trkpt lat="45.19771" lon="5.73071">
        <ele>239.59</ele>
        <time>2021-01-09T15:29:51Z</time>
      </trkpt>
      <trkpt lat="45.19778" lon="5.73075">
        <ele>239.844</ele>
        <time>2021-01-09T15:29:56Z</time>
      </trkpt>
      <trkpt lat="45.19784" lon="5.73078">
        <ele>239.23</ele>
        <time>2021-01-09T15:30:01Z</time>
      </trkpt>
      <trkpt lat="45.19792" lon="5.73082">
        <ele>238.466</ele>
        <time>2021-01-09T15:30:06Z</time>
      </trkpt>
      <trkpt lat="45.19798" lon="5.73086">
        <ele>237.111</ele>
        <time>2021-01-09T15:30:11Z</time>
      </trkpt>
      <trkpt lat="45.19803" lon="5.7309">
        <ele>235.523</ele>
        <time>2021-01-09T15:30:16Z</time>
      </trkpt>
      <trkpt lat="45.198" lon="5.73098">
        <ele>234.894</ele>
        <time>2021-01-09T15:30:25Z</time>
      </trkpt>
      <trkpt lat="45.19793" lon="5.73095">
        <ele>233.908</ele>
        <time>2021-01-09T15:30:30Z</time>
      </trkpt>
      <trkpt lat="45.19786" lon="5.73093">
        <ele>233.52</ele>
        <time>2021-01-09T15:30:36Z</time>
      </trkpt>
      <trkpt lat="45.19779" lon="5.73091">
        <ele>230.975</ele>
        <time>2021-01-09T15:30:42Z</time>
      </trkpt>
      <trkpt lat="45.19772" lon="5.73088">
        <ele>228.823</ele>
        <time>2021-01-09T15:30:48Z</time>
      </trkpt>
      <trkpt lat="45.19765" lon="5.73086">
        <ele>228.414</ele>
        <time>2021-01-09T15:30:53Z</time>
      </trkpt>
      <trkpt lat="45.19763" lon="5.73096">
        <ele>227.706</ele>
        <time>2021-01-09T15:31:00Z</time>
      </trkpt>
      <trkpt lat="45.19769" lon="5.73099">
        <ele>227.326</ele>
        <time>2021-01-09T15:31:06Z</time>
      </trkpt>
      <trkpt lat="45.19776" lon="5.73103">
        <ele>227.439</ele>
        <time>2021-01-09T15:31:12Z</time>
      </trkpt>
      <trkpt lat="45.19782" lon="5.7311">
        <ele>227.218</ele>
        <time>2021-01-09T15:31:18Z</time>
      </trkpt>
      <trkpt lat="45.19788" lon="5.73115">
        <ele>224.609</ele>
        <time>2021-01-09T15:31:24Z</time>
      </trkpt>
      <trkpt lat="45.19795" lon="5.73118">
        <ele>219.925</ele>
        <time>2021-01-09T15:31:31Z</time>
      </trkpt>
      <trkpt lat="45.19803" lon="5.73119">
        <ele>218.065</ele>
        <time>2021-01-09T15:31:37Z</time>
      </trkpt>
      <trkpt lat="45.19796" lon="5.73124">
        <ele>217.664</ele>
        <time>2021-01-09T15:31:44Z</time>
      </trkpt>
      <trkpt lat="45.19789" lon="5.73127">
        <ele>216.783</ele>
        <time>2021-01-09T15:31:49Z</time>
      </trkpt>
      <trkpt lat="45.19784" lon="5.73133">
        <ele>216.13</ele>
        <time>2021-01-09T15:31:54Z</time>
      </trkpt>
      <trkpt lat="45.1978" lon="5.73142">
        <ele>214.516</ele>
        <time>2021-01-09T15:32:00Z</time>
      </trkpt>
      <trkpt lat="45.19778" lon="5.73151">
        <ele>211.842</ele>
        <time>2021-01-09T15:32:05Z</time>
      </trkpt>
      <trkpt lat="45.19776" lon="5.73161">
        <ele>210.104</ele>
        <time>2021-01-09T15:32:10Z</time>
      </trkpt>
      <trkpt lat="45.19774" lon="5.73172">
        <ele>209.668</ele>
        <time>2021-01-09T15:32:15Z</time>
      </trkpt>
      <trkpt lat="45.19773" lon="5.73182">
        <ele>209.316</ele>
        <time>2021-01-09T15:32:20Z</time>
      </trkpt>
      <trkpt lat="45.19773" lon="5.73191">
        <ele>209.521</ele>
        <time>2021-01-09T15:32:25Z</time>
      </trkpt>
      <trkpt lat="45.19773" lon="5.73201">
        <ele>210.082</ele>
        <time>2021-01-09T15:32:30Z</time>
      </trkpt>
      <trkpt lat="45.19771" lon="5.7321">
        <ele>210.435</ele>
        <time>2021-01-09T15:32:35Z</time>
      </trkpt>
      <trkpt lat="45.19767" lon="5.7322">
        <ele>210.594</ele>
        <time>2021-01-09T15:32:41Z</time>
      </trkpt>
      <trkpt lat="45.19765" lon="5.73229">
        <ele>211.36</ele>
        <time>2021-01-09T15:32:46Z</time>
      </trkpt>
      <trkpt lat="45.19764" lon="5.7324">
        <ele>211.084</ele>
        <time>2021-01-09T15:32:51Z</time>
      </trkpt>
      <trkpt lat="45.19761" lon="5.73249">
        <ele>212.364</ele>
        <time>2021-01-09T15:32:56Z</time>
      </trkpt>
      <trkpt lat="45.19759" lon="5.73257">
        <ele>212.425</ele>
        <time>2021-01-09T15:33:01Z</time>
      </trkpt>
      <trkpt lat="45.19756" lon="5.73267">
        <ele>213.044</ele>
        <time>2021-01-09T15:33:07Z</time>
      </trkpt>
      <trkpt lat="45.19753" lon="5.73276">
        <ele>213.567</ele>
        <time>2021-01-09T15:33:12Z</time>
      </trkpt>
      <trkpt lat="45.1975" lon="5.73284">
        <ele>213.868</ele>
        <time>2021-01-09T15:33:17Z</time>
      </trkpt>
      <trkpt lat="45.19747" lon="5.73293">
        <ele>214.42</ele>
        <time>2021-01-09T15:33:22Z</time>
      </trkpt>
      <trkpt lat="45.19745" lon="5.73302">
        <ele>214.919</ele>
        <time>2021-01-09T15:33:27Z</time>
      </trkpt>
      <trkpt lat="45.19743" lon="5.73312">
        <ele>216.078</ele>
        <time>2021-01-09T15:33:32Z</time>
      </trkpt>
      <trkpt lat="45.1974" lon="5.73322">
        <ele>216.75</ele>
        <time>2021-01-09T15:33:37Z</time>
      </trkpt>
      <trkpt lat="45.19738" lon="5.73331">
        <ele>217.197</ele>
        <time>2021-01-09T15:33:42Z</time>
      </trkpt>
      <trkpt lat="45.19737" lon="5.73341">
        <ele>217.751</ele>
        <time>2021-01-09T15:33:47Z</time>
      </trkpt>
      <trkpt lat="45.19738" lon="5.73351">
        <ele>218.011</ele>
        <time>2021-01-09T15:33:52Z</time>
      </trkpt>
      <trkpt lat="45.19737" lon="5.7336">
        <ele>217.112</ele>
        <time>2021-01-09T15:33:57Z</time>
      </trkpt>
      <trkpt lat="45.19734" lon="5.7337">
        <ele>215.915</ele>
        <time>2021-01-09T15:34:02Z</time>
      </trkpt>
      <trkpt lat="45.1973" lon="5.73378">
        <ele>215.765</ele>
        <time>2021-01-09T15:34:07Z</time>
      </trkpt>
      <trkpt lat="45.19724" lon="5.73385">
        <ele>215.303</ele>
        <time>2021-01-09T15:34:12Z</time>
      </trkpt>
      <trkpt lat="45.19719" lon="5.73394">
        <ele>214.878</ele>
        <time>2021-01-09T15:34:17Z</time>
      </trkpt>
      <trkpt lat="45.19714" lon="5.73402">
        <ele>213.817</ele>
        <time>2021-01-09T15:34:22Z</time>
      </trkpt>
      <trkpt lat="45.19709" lon="5.73408">
        <ele>213.196</ele>
        <time>2021-01-09T15:34:27Z</time>
      </trkpt>
      <trkpt lat="45.1971" lon="5.73419">
        <ele>214.1</ele>
        <time>2021-01-09T15:34:33Z</time>
      </trkpt>
      <trkpt lat="45.19711" lon="5.73429">
        <ele>213.392</ele>
        <time>2021-01-09T15:34:39Z</time>
      </trkpt>
      <trkpt lat="45.19712" lon="5.73439">
        <ele>212.605</ele>
        <time>2021-01-09T15:34:44Z</time>
      </trkpt>
      <trkpt lat="45.19714" lon="5.73449">
        <ele>212.726</ele>
        <time>2021-01-09T15:34:50Z</time>
      </trkpt>
      <trkpt lat="45.19716" lon="5.73459">
        <ele>213.549</ele>
        <time>2021-01-09T15:34:55Z</time>
      </trkpt>
      <trkpt lat="45.19718" lon="5.73469">
        <ele>213.701</ele>
        <time>2021-01-09T15:35:00Z</time>
      </trkpt>
      <trkpt lat="45.19719" lon="5.73479">
        <ele>214.307</ele>
        <time>2021-01-09T15:35:05Z</time>
      </trkpt>
      <trkpt lat="45.1972" lon="5.7349">
        <ele>213.275</ele>
        <time>2021-01-09T15:35:11Z</time>
      </trkpt>
      <trkpt lat="45.19721" lon="5.735">
        <ele>212.673</ele>
        <time>2021-01-09T15:35:16Z</time>
      </trkpt>
      <trkpt lat="45.19721" lon="5.73509">
        <ele>212.079</ele>
        <time>2021-01-09T15:35:21Z</time>
      </trkpt>
      <trkpt lat="45.19721" lon="5.73519">
        <ele>212.148</ele>
        <time>2021-01-09T15:35:26Z</time>
      </trkpt>
      <trkpt lat="45.19722" lon="5.73528">
        <ele>212.948</ele>
        <time>2021-01-09T15:35:31Z</time>
      </trkpt>
      <trkpt lat="45.19723" lon="5.73538">
        <ele>213.549</ele>
        <time>2021-01-09T15:35:36Z</time>
      </trkpt>
      <trkpt lat="45.19724" lon="5.73547">
        <ele>214.363</ele>
        <time>2021-01-09T15:35:41Z</time>
      </trkpt>
      <trkpt lat="45.19723" lon="5.73556">
        <ele>216.333</ele>
        <time>2021-01-09T15:35:46Z</time>
      </trkpt>
      <trkpt lat="45.19717" lon="5.7356">
        <ele>217.345</ele>
        <time>2021-01-09T15:35:58Z</time>
      </trkpt>
      <trkpt lat="45.19721" lon="5.73569">
        <ele>215.477</ele>
        <time>2021-01-09T15:36:04Z</time>
      </trkpt>
      <trkpt lat="45.19723" lon="5.73579">
        <ele>216.739</ele>
        <time>2021-01-09T15:36:10Z</time>
      </trkpt>
      <trkpt lat="45.19743" lon="5.73755">
        <ele>237.139</ele>
        <time>2021-01-09T15:40:50Z</time>
      </trkpt>
      <trkpt lat="45.1974" lon="5.73762">
        <ele>218.918</ele>
        <time>2021-01-09T15:40:59Z</time>
      </trkpt>
      <trkpt lat="45.19739" lon="5.73772">
        <ele>218.209</ele>
        <time>2021-01-09T15:41:04Z</time>
      </trkpt>
      <trkpt lat="45.19739" lon="5.73782">
        <ele>217.817</ele>
        <time>2021-01-09T15:41:09Z</time>
      </trkpt>
      <trkpt lat="45.1974" lon="5.73793">
        <ele>217.774</ele>
        <time>2021-01-09T15:41:14Z</time>
      </trkpt>
      <trkpt lat="45.1974" lon="5.73803">
        <ele>217.502</ele>
        <time>2021-01-09T15:41:19Z</time>
      </trkpt>
      <trkpt lat="45.1974" lon="5.73813">
        <ele>216.897</ele>
        <time>2021-01-09T15:41:24Z</time>
      </trkpt>
      <trkpt lat="45.19739" lon="5.73823">
        <ele>216.767</ele>
        <time>2021-01-09T15:41:29Z</time>
      </trkpt>
      <trkpt lat="45.19739" lon="5.73834">
        <ele>216.254</ele>
        <time>2021-01-09T15:41:34Z</time>
      </trkpt>
      <trkpt lat="45.1974" lon="5.73844">
        <ele>215.747</ele>
        <time>2021-01-09T15:41:39Z</time>
      </trkpt>
      <trkpt lat="45.19739" lon="5.73854">
        <ele>214.902</ele>
        <time>2021-01-09T15:41:44Z</time>
      </trkpt>
      <trkpt lat="45.19743" lon="5.73864">
        <ele>214.6</ele>
        <time>2021-01-09T15:41:49Z</time>
      </trkpt>
      <trkpt lat="45.19744" lon="5.73875">
        <ele>214.464</ele>
        <time>2021-01-09T15:41:54Z</time>
      </trkpt>
      <trkpt lat="45.19745" lon="5.73885">
        <ele>215.504</ele>
        <time>2021-01-09T15:41:59Z</time>
      </trkpt>
      <trkpt lat="45.19747" lon="5.73896">
        <ele>215.624</ele>
        <time>2021-01-09T15:42:04Z</time>
      </trkpt>
      <trkpt lat="45.19748" lon="5.73906">
        <ele>215.513</ele>
        <time>2021-01-09T15:42:09Z</time>
      </trkpt>
      <trkpt lat="45.1975" lon="5.73917">
        <ele>215.968</ele>
        <time>2021-01-09T15:42:14Z</time>
      </trkpt>
      <trkpt lat="45.19752" lon="5.73927">
        <ele>216.424</ele>
        <time>2021-01-09T15:42:19Z</time>
      </trkpt>
      <trkpt lat="45.19753" lon="5.73937">
        <ele>217.344</ele>
        <time>2021-01-09T15:42:24Z</time>
      </trkpt>
      <trkpt lat="45.19754" lon="5.73947">
        <ele>215.437</ele>
        <time>2021-01-09T15:42:29Z</time>
      </trkpt>
      <trkpt lat="45.19755" lon="5.73957">
        <ele>215.835</ele>
        <time>2021-01-09T15:42:34Z</time>
      </trkpt>
      <trkpt lat="45.19756" lon="5.73967">
        <ele>216.887</ele>
        <time>2021-01-09T15:42:39Z</time>
      </trkpt>
      <trkpt lat="45.19758" lon="5.73978">
        <ele>215.904</ele>
        <time>2021-01-09T15:42:44Z</time>
      </trkpt>
      <trkpt lat="45.19759" lon="5.73989">
        <ele>215.746</ele>
        <time>2021-01-09T15:42:49Z</time>
      </trkpt>
      <trkpt lat="45.19758" lon="5.73999">
        <ele>215.586</ele>
        <time>2021-01-09T15:42:54Z</time>
      </trkpt>
      <trkpt lat="45.19757" lon="5.7401">
        <ele>213.925</ele>
        <time>2021-01-09T15:42:59Z</time>
      </trkpt>
      <trkpt lat="45.19758" lon="5.74021">
        <ele>214.208</ele>
        <time>2021-01-09T15:43:04Z</time>
      </trkpt>
      <trkpt lat="45.1976" lon="5.74031">
        <ele>213.74</ele>
        <time>2021-01-09T15:43:09Z</time>
      </trkpt>
      <trkpt lat="45.1976" lon="5.74041">
        <ele>212.244</ele>
        <time>2021-01-09T15:43:14Z</time>
      </trkpt>
      <trkpt lat="45.19761" lon="5.74051">
        <ele>212.932</ele>
        <time>2021-01-09T15:43:19Z</time>
      </trkpt>
      <trkpt lat="45.19762" lon="5.74062">
        <ele>213.934</ele>
        <time>2021-01-09T15:43:24Z</time>
      </trkpt>
      <trkpt lat="45.19763" lon="5.74073">
        <ele>214.22</ele>
        <time>2021-01-09T15:43:29Z</time>
      </trkpt>
      <trkpt lat="45.19764" lon="5.74083">
        <ele>213.868</ele>
        <time>2021-01-09T15:43:34Z</time>
      </trkpt>
      <trkpt lat="45.19765" lon="5.74093">
        <ele>213.651</ele>
        <time>2021-01-09T15:43:39Z</time>
      </trkpt>
      <trkpt lat="45.19765" lon="5.74104">
        <ele>212.98</ele>
        <time>2021-01-09T15:43:44Z</time>
      </trkpt>
      <trkpt lat="45.19766" lon="5.74114">
        <ele>212.14</ele>
        <time>2021-01-09T15:43:49Z</time>
      </trkpt>
      <trkpt lat="45.19768" lon="5.74124">
        <ele>211.853</ele>
        <time>2021-01-09T15:43:54Z</time>
      </trkpt>
      <trkpt lat="45.19769" lon="5.74134">
        <ele>211.749</ele>
        <time>2021-01-09T15:43:59Z</time>
      </trkpt>
      <trkpt lat="45.19771" lon="5.74145">
        <ele>211.629</ele>
        <time>2021-01-09T15:44:04Z</time>
      </trkpt>
      <trkpt lat="45.19773" lon="5.74157">
        <ele>211.818</ele>
        <time>2021-01-09T15:44:09Z</time>
      </trkpt>
      <trkpt lat="45.19775" lon="5.74167">
        <ele>212.915</ele>
        <time>2021-01-09T15:44:14Z</time>
      </trkpt>
      <trkpt lat="45.19776" lon="5.74177">
        <ele>213.308</ele>
        <time>2021-01-09T15:44:19Z</time>
      </trkpt>
      <trkpt lat="45.19777" lon="5.74188">
        <ele>214.107</ele>
        <time>2021-01-09T15:44:24Z</time>
      </trkpt>
      <trkpt lat="45.19778" lon="5.74198">
        <ele>213.254</ele>
        <time>2021-01-09T15:44:29Z</time>
      </trkpt>
      <trkpt lat="45.19779" lon="5.74209">
        <ele>213.277</ele>
        <time>2021-01-09T15:44:34Z</time>
      </trkpt>
      <trkpt lat="45.1978" lon="5.7422">
        <ele>212.738</ele>
        <time>2021-01-09T15:44:39Z</time>
      </trkpt>
      <trkpt lat="45.19781" lon="5.74231">
        <ele>213.404</ele>
        <time>2021-01-09T15:44:44Z</time>
      </trkpt>
      <trkpt lat="45.19786" lon="5.74239">
        <ele>216.671</ele>
        <time>2021-01-09T15:44:49Z</time>
      </trkpt>
      <trkpt lat="45.1978" lon="5.74243">
        <ele>217.262</ele>
        <time>2021-01-09T15:44:54Z</time>
      </trkpt>
      <trkpt lat="45.19772" lon="5.74244">
        <ele>215.904</ele>
        <time>2021-01-09T15:44:59Z</time>
      </trkpt>
      <trkpt lat="45.19764" lon="5.74246">
        <ele>215.722</ele>
        <time>2021-01-09T15:45:04Z</time>
      </trkpt>
      <trkpt lat="45.19756" lon="5.74247">
        <ele>215.954</ele>
        <time>2021-01-09T15:45:09Z</time>
      </trkpt>
      <trkpt lat="45.19749" lon="5.74247">
        <ele>216.804</ele>
        <time>2021-01-09T15:45:14Z</time>
      </trkpt>
      <trkpt lat="45.19741" lon="5.74249">
        <ele>216.846</ele>
        <time>2021-01-09T15:45:19Z</time>
      </trkpt>
      <trkpt lat="45.19734" lon="5.74249">
        <ele>215.614</ele>
        <time>2021-01-09T15:45:24Z</time>
      </trkpt>
      <trkpt lat="45.19727" lon="5.74249">
        <ele>215.292</ele>
        <time>2021-01-09T15:45:29Z</time>
      </trkpt>
      <trkpt lat="45.1972" lon="5.74249">
        <ele>215.175</ele>
        <time>2021-01-09T15:45:34Z</time>
      </trkpt>
      <trkpt lat="45.19712" lon="5.74249">
        <ele>215.105</ele>
        <time>2021-01-09T15:45:39Z</time>
      </trkpt>
      <trkpt lat="45.19705" lon="5.7425">
        <ele>215.321</ele>
        <time>2021-01-09T15:45:44Z</time>
      </trkpt>
      <trkpt lat="45.19698" lon="5.7425">
        <ele>215.71</ele>
        <time>2021-01-09T15:45:49Z</time>
      </trkpt>
      <trkpt lat="45.19691" lon="5.74251">
        <ele>215.098</ele>
        <time>2021-01-09T15:45:54Z</time>
      </trkpt>
      <trkpt lat="45.19684" lon="5.7425">
        <ele>214.55</ele>
        <time>2021-01-09T15:45:59Z</time>
      </trkpt>
      <trkpt lat="45.19677" lon="5.7425">
        <ele>214.415</ele>
        <time>2021-01-09T15:46:04Z</time>
      </trkpt>
      <trkpt lat="45.19669" lon="5.7425">
        <ele>214.541</ele>
        <time>2021-01-09T15:46:09Z</time>
      </trkpt>
      <trkpt lat="45.19662" lon="5.74249">
        <ele>214.768</ele>
        <time>2021-01-09T15:46:14Z</time>
      </trkpt>
      <trkpt lat="45.19654" lon="5.74248">
        <ele>214.884</ele>
        <time>2021-01-09T15:46:19Z</time>
      </trkpt>
      <trkpt lat="45.19647" lon="5.74248">
        <ele>214.773</ele>
        <time>2021-01-09T15:46:24Z</time>
      </trkpt>
      <trkpt lat="45.19639" lon="5.74247">
        <ele>214.333</ele>
        <time>2021-01-09T15:46:29Z</time>
      </trkpt>
      <trkpt lat="45.19632" lon="5.74245">
        <ele>213.742</ele>
        <time>2021-01-09T15:46:34Z</time>
      </trkpt>
      <trkpt lat="45.19625" lon="5.74243">
        <ele>213.718</ele>
        <time>2021-01-09T15:46:39Z</time>
      </trkpt>
      <trkpt lat="45.19617" lon="5.74242">
        <ele>213.636</ele>
        <time>2021-01-09T15:46:44Z</time>
      </trkpt>
      <trkpt lat="45.1961" lon="5.7424">
        <ele>213.82</ele>
        <time>2021-01-09T15:46:49Z</time>
      </trkpt>
      <trkpt lat="45.19602" lon="5.74239">
        <ele>212.765</ele>
        <time>2021-01-09T15:46:54Z</time>
      </trkpt>
      <trkpt lat="45.19595" lon="5.74238">
        <ele>211.644</ele>
        <time>2021-01-09T15:46:59Z</time>
      </trkpt>
      <trkpt lat="45.19588" lon="5.74237">
        <ele>211.562</ele>
        <time>2021-01-09T15:47:04Z</time>
      </trkpt>
      <trkpt lat="45.19581" lon="5.74235">
        <ele>210.954</ele>
        <time>2021-01-09T15:47:09Z</time>
      </trkpt>
      <trkpt lat="45.19573" lon="5.74233">
        <ele>210.749</ele>
        <time>2021-01-09T15:47:14Z</time>
      </trkpt>
      <trkpt lat="45.19566" lon="5.74232">
        <ele>210.147</ele>
        <time>2021-01-09T15:47:19Z</time>
      </trkpt>
      <trkpt lat="45.19559" lon="5.7423">
        <ele>210.105</ele>
        <time>2021-01-09T15:47:24Z</time>
      </trkpt>
      <trkpt lat="45.19551" lon="5.74228">
        <ele>211.264</ele>
        <time>2021-01-09T15:47:29Z</time>
      </trkpt>
      <trkpt lat="45.19543" lon="5.74226">
        <ele>210.695</ele>
        <time>2021-01-09T15:47:34Z</time>
      </trkpt>
      <trkpt lat="45.19536" lon="5.74224">
        <ele>209.795</ele>
        <time>2021-01-09T15:47:39Z</time>
      </trkpt>
      <trkpt lat="45.19528" lon="5.74224">
        <ele>210.621</ele>
        <time>2021-01-09T15:47:44Z</time>
      </trkpt>
      <trkpt lat="45.19521" lon="5.74221">
        <ele>212.441</ele>
        <time>2021-01-09T15:47:49Z</time>
      </trkpt>
      <trkpt lat="45.19515" lon="5.74216">
        <ele>212.354</ele>
        <time>2021-01-09T15:47:54Z</time>
      </trkpt>
      <trkpt lat="45.19508" lon="5.74213">
        <ele>211.845</ele>
        <time>2021-01-09T15:47:59Z</time>
      </trkpt>
      <trkpt lat="45.19501" lon="5.74211">
        <ele>212.137</ele>
        <time>2021-01-09T15:48:04Z</time>
      </trkpt>
      <trkpt lat="45.19494" lon="5.74208">
        <ele>211.962</ele>
        <time>2021-01-09T15:48:09Z</time>
      </trkpt>
      <trkpt lat="45.19487" lon="5.74205">
        <ele>213.025</ele>
        <time>2021-01-09T15:48:14Z</time>
      </trkpt>
      <trkpt lat="45.19479" lon="5.74201">
        <ele>213.373</ele>
        <time>2021-01-09T15:48:19Z</time>
      </trkpt>
      <trkpt lat="45.19472" lon="5.74197">
        <ele>213.217</ele>
        <time>2021-01-09T15:48:24Z</time>
      </trkpt>
      <trkpt lat="45.19464" lon="5.74193">
        <ele>213.866</ele>
        <time>2021-01-09T15:48:29Z</time>
      </trkpt>
      <trkpt lat="45.19457" lon="5.7419">
        <ele>214.005</ele>
        <time>2021-01-09T15:48:34Z</time>
      </trkpt>
      <trkpt lat="45.1945" lon="5.74187">
        <ele>213.865</ele>
        <time>2021-01-09T15:48:39Z</time>
      </trkpt>
      <trkpt lat="45.19442" lon="5.74186">
        <ele>213.606</ele>
        <time>2021-01-09T15:48:44Z</time>
      </trkpt>
      <trkpt lat="45.19435" lon="5.74183">
        <ele>212.995</ele>
        <time>2021-01-09T15:48:49Z</time>
      </trkpt>
      <trkpt lat="45.19427" lon="5.7418">
        <ele>215.242</ele>
        <time>2021-01-09T15:48:54Z</time>
      </trkpt>
      <trkpt lat="45.1942" lon="5.74176">
        <ele>215.931</ele>
        <time>2021-01-09T15:48:59Z</time>
      </trkpt>
      <trkpt lat="45.19413" lon="5.74175">
        <ele>215.895</ele>
        <time>2021-01-09T15:49:04Z</time>
      </trkpt>
      <trkpt lat="45.19406" lon="5.74174">
        <ele>215.693</ele>
        <time>2021-01-09T15:49:09Z</time>
      </trkpt>
      <trkpt lat="45.19399" lon="5.74173">
        <ele>215.06</ele>
        <time>2021-01-09T15:49:14Z</time>
      </trkpt>
      <trkpt lat="45.19391" lon="5.74171">
        <ele>215.331</ele>
        <time>2021-01-09T15:49:19Z</time>
      </trkpt>
      <trkpt lat="45.19384" lon="5.74169">
        <ele>216.501</ele>
        <time>2021-01-09T15:49:24Z</time>
      </trkpt>
      <trkpt lat="45.19377" lon="5.74167">
        <ele>216.451</ele>
        <time>2021-01-09T15:49:29Z</time>
      </trkpt>
      <trkpt lat="45.1937" lon="5.74164">
        <ele>215.999</ele>
        <time>2021-01-09T15:49:34Z</time>
      </trkpt>
      <trkpt lat="45.19363" lon="5.74162">
        <ele>215.241</ele>
        <time>2021-01-09T15:49:39Z</time>
      </trkpt>
      <trkpt lat="45.19356" lon="5.74159">
        <ele>215.079</ele>
        <time>2021-01-09T15:49:44Z</time>
      </trkpt>
      <trkpt lat="45.19348" lon="5.74161">
        <ele>215.77</ele>
        <time>2021-01-09T15:49:49Z</time>
      </trkpt>
      <trkpt lat="45.19341" lon="5.7416">
        <ele>215.791</ele>
        <time>2021-01-09T15:49:54Z</time>
      </trkpt>
      <trkpt lat="45.19335" lon="5.74159">
        <ele>215.947</ele>
        <time>2021-01-09T15:49:59Z</time>
      </trkpt>
      <trkpt lat="45.19328" lon="5.74156">
        <ele>215.968</ele>
        <time>2021-01-09T15:50:04Z</time>
      </trkpt>
      <trkpt lat="45.19321" lon="5.74156">
        <ele>214.902</ele>
        <time>2021-01-09T15:50:09Z</time>
      </trkpt>
      <trkpt lat="45.19314" lon="5.74154">
        <ele>215.841</ele>
        <time>2021-01-09T15:50:14Z</time>
      </trkpt>
      <trkpt lat="45.19307" lon="5.74153">
        <ele>216.441</ele>
        <time>2021-01-09T15:50:19Z</time>
      </trkpt>
      <trkpt lat="45.193" lon="5.74152">
        <ele>216.379</ele>
        <time>2021-01-09T15:50:24Z</time>
      </trkpt>
      <trkpt lat="45.19293" lon="5.74151">
        <ele>216.54</ele>
        <time>2021-01-09T15:50:29Z</time>
      </trkpt>
      <trkpt lat="45.19285" lon="5.74149">
        <ele>217.014</ele>
        <time>2021-01-09T15:50:34Z</time>
      </trkpt>
      <trkpt lat="45.19277" lon="5.74148">
        <ele>216.407</ele>
        <time>2021-01-09T15:50:39Z</time>
      </trkpt>
      <trkpt lat="45.1927" lon="5.74147">
        <ele>217.244</ele>
        <time>2021-01-09T15:50:44Z</time>
      </trkpt>
      <trkpt lat="45.19263" lon="5.74146">
        <ele>216.826</ele>
        <time>2021-01-09T15:50:49Z</time>
      </trkpt>
      <trkpt lat="45.19256" lon="5.74143">
        <ele>215.923</ele>
        <time>2021-01-09T15:50:54Z</time>
      </trkpt>
      <trkpt lat="45.19249" lon="5.74142">
        <ele>216.357</ele>
        <time>2021-01-09T15:50:59Z</time>
      </trkpt>
      <trkpt lat="45.19241" lon="5.74141">
        <ele>216.848</ele>
        <time>2021-01-09T15:51:04Z</time>
      </trkpt>
      <trkpt lat="45.19234" lon="5.7414">
        <ele>216.534</ele>
        <time>2021-01-09T15:51:09Z</time>
      </trkpt>
      <trkpt lat="45.19226" lon="5.74139">
        <ele>217.946</ele>
        <time>2021-01-09T15:51:14Z</time>
      </trkpt>
      <trkpt lat="45.19217" lon="5.74137">
        <ele>219.18</ele>
        <time>2021-01-09T15:51:20Z</time>
      </trkpt>
      <trkpt lat="45.1921" lon="5.74135">
        <ele>218.336</ele>
        <time>2021-01-09T15:51:25Z</time>
      </trkpt>
      <trkpt lat="45.19203" lon="5.74134">
        <ele>217.69</ele>
        <time>2021-01-09T15:51:30Z</time>
      </trkpt>
      <trkpt lat="45.19196" lon="5.74132">
        <ele>219.023</ele>
        <time>2021-01-09T15:51:35Z</time>
      </trkpt>
      <trkpt lat="45.19188" lon="5.74133">
        <ele>218.875</ele>
        <time>2021-01-09T15:51:40Z</time>
      </trkpt>
      <trkpt lat="45.19181" lon="5.74133">
        <ele>218.285</ele>
        <time>2021-01-09T15:51:45Z</time>
      </trkpt>
      <trkpt lat="45.19173" lon="5.74132">
        <ele>219.671</ele>
        <time>2021-01-09T15:51:50Z</time>
      </trkpt>
      <trkpt lat="45.19166" lon="5.74133">
        <ele>219.379</ele>
        <time>2021-01-09T15:51:55Z</time>
      </trkpt>
      <trkpt lat="45.19159" lon="5.74134">
        <ele>219.448</ele>
        <time>2021-01-09T15:52:00Z</time>
      </trkpt>
      <trkpt lat="45.1915" lon="5.74136">
        <ele>217.673</ele>
        <time>2021-01-09T15:52:05Z</time>
      </trkpt>
      <trkpt lat="45.19143" lon="5.74136">
        <ele>217.754</ele>
        <time>2021-01-09T15:52:10Z</time>
      </trkpt>
      <trkpt lat="45.19135" lon="5.74136">
        <ele>219.284</ele>
        <time>2021-01-09T15:52:15Z</time>
      </trkpt>
      <trkpt lat="45.19129" lon="5.74136">
        <ele>220.029</ele>
        <time>2021-01-09T15:52:20Z</time>
      </trkpt>
      <trkpt lat="45.19121" lon="5.74136">
        <ele>219.344</ele>
        <time>2021-01-09T15:52:25Z</time>
      </trkpt>
      <trkpt lat="45.19114" lon="5.74137">
        <ele>217.797</ele>
        <time>2021-01-09T15:52:30Z</time>
      </trkpt>
      <trkpt lat="45.19107" lon="5.7414">
        <ele>218.335</ele>
        <time>2021-01-09T15:52:35Z</time>
      </trkpt>
      <trkpt lat="45.191" lon="5.74142">
        <ele>219.486</ele>
        <time>2021-01-09T15:52:40Z</time>
      </trkpt>
      <trkpt lat="45.19093" lon="5.74144">
        <ele>220.56</ele>
        <time>2021-01-09T15:52:45Z</time>
      </trkpt>
      <trkpt lat="45.19086" lon="5.74147">
        <ele>220.984</ele>
        <time>2021-01-09T15:52:50Z</time>
      </trkpt>
      <trkpt lat="45.19079" lon="5.7415">
        <ele>219.093</ele>
        <time>2021-01-09T15:52:55Z</time>
      </trkpt>
      <trkpt lat="45.19072" lon="5.74153">
        <ele>218.431</ele>
        <time>2021-01-09T15:53:00Z</time>
      </trkpt>
      <trkpt lat="45.19066" lon="5.74156">
        <ele>217.643</ele>
        <time>2021-01-09T15:53:05Z</time>
      </trkpt>
      <trkpt lat="45.19059" lon="5.74161">
        <ele>217.447</ele>
        <time>2021-01-09T15:53:10Z</time>
      </trkpt>
      <trkpt lat="45.19052" lon="5.74165">
        <ele>217.196</ele>
        <time>2021-01-09T15:53:15Z</time>
      </trkpt>
      <trkpt lat="45.19045" lon="5.7417">
        <ele>217.246</ele>
        <time>2021-01-09T15:53:20Z</time>
      </trkpt>
      <trkpt lat="45.19039" lon="5.74173">
        <ele>217.756</ele>
        <time>2021-01-09T15:53:25Z</time>
      </trkpt>
      <trkpt lat="45.19032" lon="5.74178">
        <ele>216.752</ele>
        <time>2021-01-09T15:53:31Z</time>
      </trkpt>
      <trkpt lat="45.19026" lon="5.74182">
        <ele>216.481</ele>
        <time>2021-01-09T15:53:36Z</time>
      </trkpt>
      <trkpt lat="45.19019" lon="5.74186">
        <ele>216.748</ele>
        <time>2021-01-09T15:53:41Z</time>
      </trkpt>
      <trkpt lat="45.19013" lon="5.7419">
        <ele>216.603</ele>
        <time>2021-01-09T15:53:46Z</time>
      </trkpt>
      <trkpt lat="45.19007" lon="5.74194">
        <ele>216.561</ele>
        <time>2021-01-09T15:53:51Z</time>
      </trkpt>
      <trkpt lat="45.19" lon="5.74199">
        <ele>216.457</ele>
        <time>2021-01-09T15:53:56Z</time>
      </trkpt>
      <trkpt lat="45.18994" lon="5.74204">
        <ele>215.928</ele>
        <time>2021-01-09T15:54:01Z</time>
      </trkpt>
      <trkpt lat="45.18988" lon="5.74209">
        <ele>215.512</ele>
        <time>2021-01-09T15:54:06Z</time>
      </trkpt>
      <trkpt lat="45.18982" lon="5.74215">
        <ele>214.907</ele>
        <time>2021-01-09T15:54:11Z</time>
      </trkpt>
      <trkpt lat="45.18976" lon="5.7422">
        <ele>214.83</ele>
        <time>2021-01-09T15:54:16Z</time>
      </trkpt>
      <trkpt lat="45.1897" lon="5.74224">
        <ele>213.587</ele>
        <time>2021-01-09T15:54:21Z</time>
      </trkpt>
      <trkpt lat="45.18965" lon="5.7423">
        <ele>213.454</ele>
        <time>2021-01-09T15:54:26Z</time>
      </trkpt>
      <trkpt lat="45.1896" lon="5.74236">
        <ele>212.252</ele>
        <time>2021-01-09T15:54:31Z</time>
      </trkpt>
      <trkpt lat="45.18956" lon="5.74246">
        <ele>215.108</ele>
        <time>2021-01-09T15:54:36Z</time>
      </trkpt>
      <trkpt lat="45.1895" lon="5.74253">
        <ele>214.283</ele>
        <time>2021-01-09T15:54:41Z</time>
      </trkpt>
      <trkpt lat="45.18945" lon="5.74263">
        <ele>214.443</ele>
        <time>2021-01-09T15:54:46Z</time>
      </trkpt>
      <trkpt lat="45.18939" lon="5.74271">
        <ele>215.385</ele>
        <time>2021-01-09T15:54:51Z</time>
      </trkpt>
      <trkpt lat="45.18934" lon="5.74281">
        <ele>214.726</ele>
        <time>2021-01-09T15:54:56Z</time>
      </trkpt>
      <trkpt lat="45.1893" lon="5.74289">
        <ele>214.998</ele>
        <time>2021-01-09T15:55:01Z</time>
      </trkpt>
      <trkpt lat="45.18926" lon="5.74298">
        <ele>214.631</ele>
        <time>2021-01-09T15:55:06Z</time>
      </trkpt>
      <trkpt lat="45.18922" lon="5.74307">
        <ele>215.236</ele>
        <time>2021-01-09T15:55:11Z</time>
      </trkpt>
      <trkpt lat="45.18918" lon="5.74316">
        <ele>215.637</ele>
        <time>2021-01-09T15:55:16Z</time>
      </trkpt>
      <trkpt lat="45.18914" lon="5.74325">
        <ele>214.904</ele>
        <time>2021-01-09T15:55:21Z</time>
      </trkpt>
      <trkpt lat="45.1891" lon="5.74334">
        <ele>214.798</ele>
        <time>2021-01-09T15:55:26Z</time>
      </trkpt>
      <trkpt lat="45.18905" lon="5.74343">
        <ele>214.726</ele>
        <time>2021-01-09T15:55:31Z</time>
      </trkpt>
      <trkpt lat="45.18901" lon="5.74352">
        <ele>215.627</ele>
        <time>2021-01-09T15:55:36Z</time>
      </trkpt>
      <trkpt lat="45.18898" lon="5.74361">
        <ele>215.515</ele>
        <time>2021-01-09T15:55:41Z</time>
      </trkpt>
      <trkpt lat="45.18895" lon="5.7437">
        <ele>216.304</ele>
        <time>2021-01-09T15:55:46Z</time>
      </trkpt>
      <trkpt lat="45.18893" lon="5.7438">
        <ele>215.966</ele>
        <time>2021-01-09T15:55:51Z</time>
      </trkpt>
      <trkpt lat="45.1889" lon="5.7439">
        <ele>217.04</ele>
        <time>2021-01-09T15:55:56Z</time>
      </trkpt>
      <trkpt lat="45.18887" lon="5.74399">
        <ele>217.956</ele>
        <time>2021-01-09T15:56:01Z</time>
      </trkpt>
      <trkpt lat="45.18885" lon="5.7441">
        <ele>217.517</ele>
        <time>2021-01-09T15:56:06Z</time>
      </trkpt>
      <trkpt lat="45.18883" lon="5.7442">
        <ele>218.284</ele>
        <time>2021-01-09T15:56:11Z</time>
      </trkpt>
      <trkpt lat="45.18881" lon="5.7443">
        <ele>217.925</ele>
        <time>2021-01-09T15:56:16Z</time>
      </trkpt>
      <trkpt lat="45.18878" lon="5.74439">
        <ele>218.492</ele>
        <time>2021-01-09T15:56:21Z</time>
      </trkpt>
      <trkpt lat="45.18875" lon="5.74449">
        <ele>218.577</ele>
        <time>2021-01-09T15:56:26Z</time>
      </trkpt>
      <trkpt lat="45.18872" lon="5.74459">
        <ele>218.973</ele>
        <time>2021-01-09T15:56:31Z</time>
      </trkpt>
      <trkpt lat="45.18869" lon="5.74468">
        <ele>218.826</ele>
        <time>2021-01-09T15:56:36Z</time>
      </trkpt>
      <trkpt lat="45.18867" lon="5.74478">
        <ele>218.329</ele>
        <time>2021-01-09T15:56:41Z</time>
      </trkpt>
      <trkpt lat="45.18864" lon="5.74488">
        <ele>219.021</ele>
        <time>2021-01-09T15:56:46Z</time>
      </trkpt>
      <trkpt lat="45.18861" lon="5.74497">
        <ele>218.86</ele>
        <time>2021-01-09T15:56:51Z</time>
      </trkpt>
      <trkpt lat="45.18859" lon="5.74507">
        <ele>218.719</ele>
        <time>2021-01-09T15:56:56Z</time>
      </trkpt>
      <trkpt lat="45.18857" lon="5.74517">
        <ele>219.755</ele>
        <time>2021-01-09T15:57:01Z</time>
      </trkpt>
      <trkpt lat="45.18856" lon="5.74528">
        <ele>221.409</ele>
        <time>2021-01-09T15:57:06Z</time>
      </trkpt>
      <trkpt lat="45.18855" lon="5.74539">
        <ele>221.062</ele>
        <time>2021-01-09T15:57:11Z</time>
      </trkpt>
      <trkpt lat="45.18853" lon="5.74549">
        <ele>221.517</ele>
        <time>2021-01-09T15:57:16Z</time>
      </trkpt>
      <trkpt lat="45.18853" lon="5.7456">
        <ele>221.789</ele>
        <time>2021-01-09T15:57:21Z</time>
      </trkpt>
      <trkpt lat="45.18851" lon="5.74569">
        <ele>221.02</ele>
        <time>2021-01-09T15:57:26Z</time>
      </trkpt>
      <trkpt lat="45.18849" lon="5.74579">
        <ele>221.331</ele>
        <time>2021-01-09T15:57:31Z</time>
      </trkpt>
      <trkpt lat="45.18848" lon="5.74589">
        <ele>220.377</ele>
        <time>2021-01-09T15:57:36Z</time>
      </trkpt>
      <trkpt lat="45.18846" lon="5.74599">
        <ele>220.238</ele>
        <time>2021-01-09T15:57:41Z</time>
      </trkpt>
      <trkpt lat="45.18845" lon="5.74609">
        <ele>219.216</ele>
        <time>2021-01-09T15:57:46Z</time>
      </trkpt>
      <trkpt lat="45.18844" lon="5.74619">
        <ele>219.159</ele>
        <time>2021-01-09T15:57:51Z</time>
      </trkpt>
      <trkpt lat="45.18842" lon="5.74629">
        <ele>219.081</ele>
        <time>2021-01-09T15:57:56Z</time>
      </trkpt>
      <trkpt lat="45.18841" lon="5.7464">
        <ele>218.691</ele>
        <time>2021-01-09T15:58:01Z</time>
      </trkpt>
      <trkpt lat="45.1884" lon="5.7465">
        <ele>218.253</ele>
        <time>2021-01-09T15:58:06Z</time>
      </trkpt>
      <trkpt lat="45.18839" lon="5.74659">
        <ele>219.917</ele>
        <time>2021-01-09T15:58:11Z</time>
      </trkpt>
      <trkpt lat="45.18839" lon="5.7467">
        <ele>219.967</ele>
        <time>2021-01-09T15:58:16Z</time>
      </trkpt>
      <trkpt lat="45.18839" lon="5.74681">
        <ele>218.902</ele>
        <time>2021-01-09T15:58:21Z</time>
      </trkpt>
      <trkpt lat="45.18839" lon="5.74692">
        <ele>219.593</ele>
        <time>2021-01-09T15:58:26Z</time>
      </trkpt>
      <trkpt lat="45.18835" lon="5.747">
        <ele>220.082</ele>
        <time>2021-01-09T15:58:31Z</time>
      </trkpt>
      <trkpt lat="45.1883" lon="5.74709">
        <ele>219.416</ele>
        <time>2021-01-09T15:58:36Z</time>
      </trkpt>
      <trkpt lat="45.18824" lon="5.74716">
        <ele>217.878</ele>
        <time>2021-01-09T15:58:41Z</time>
      </trkpt>
      <trkpt lat="45.1882" lon="5.74725">
        <ele>217.997</ele>
        <time>2021-01-09T15:58:46Z</time>
      </trkpt>
      <trkpt lat="45.18819" lon="5.74736">
        <ele>217.21</ele>
        <time>2021-01-09T15:58:51Z</time>
      </trkpt>
      <trkpt lat="45.18817" lon="5.74745">
        <ele>216.93</ele>
        <time>2021-01-09T15:58:56Z</time>
      </trkpt>
      <trkpt lat="45.18816" lon="5.74756">
        <ele>219.213</ele>
        <time>2021-01-09T15:59:01Z</time>
      </trkpt>
      <trkpt lat="45.18815" lon="5.74766">
        <ele>217.947</ele>
        <time>2021-01-09T15:59:06Z</time>
      </trkpt>
      <trkpt lat="45.18814" lon="5.74776">
        <ele>218.119</ele>
        <time>2021-01-09T15:59:11Z</time>
      </trkpt>
      <trkpt lat="45.18813" lon="5.74786">
        <ele>217.858</ele>
        <time>2021-01-09T15:59:16Z</time>
      </trkpt>
      <trkpt lat="45.1881" lon="5.74795">
        <ele>218.003</ele>
        <time>2021-01-09T15:59:21Z</time>
      </trkpt>
      <trkpt lat="45.18803" lon="5.748">
        <ele>217.497</ele>
        <time>2021-01-09T15:59:26Z</time>
      </trkpt>
      <trkpt lat="45.18795" lon="5.748">
        <ele>217.432</ele>
        <time>2021-01-09T15:59:31Z</time>
      </trkpt>
      <trkpt lat="45.18787" lon="5.74802">
        <ele>213.212</ele>
        <time>2021-01-09T15:59:36Z</time>
      </trkpt>
      <trkpt lat="45.18784" lon="5.74813">
        <ele>211.665</ele>
        <time>2021-01-09T15:59:41Z</time>
      </trkpt>
      <trkpt lat="45.18784" lon="5.74823">
        <ele>212.426</ele>
        <time>2021-01-09T15:59:46Z</time>
      </trkpt>
      <trkpt lat="45.18783" lon="5.74833">
        <ele>212.051</ele>
        <time>2021-01-09T15:59:51Z</time>
      </trkpt>
      <trkpt lat="45.18782" lon="5.74843">
        <ele>212.968</ele>
        <time>2021-01-09T15:59:56Z</time>
      </trkpt>
      <trkpt lat="45.1878" lon="5.74853">
        <ele>212.623</ele>
        <time>2021-01-09T16:00:01Z</time>
      </trkpt>
      <trkpt lat="45.18779" lon="5.74864">
        <ele>212.784</ele>
        <time>2021-01-09T16:00:06Z</time>
      </trkpt>
      <trkpt lat="45.18777" lon="5.74875">
        <ele>213.198</ele>
        <time>2021-01-09T16:00:11Z</time>
      </trkpt>
      <trkpt lat="45.18775" lon="5.74886">
        <ele>213.722</ele>
        <time>2021-01-09T16:00:16Z</time>
      </trkpt>
      <trkpt lat="45.18773" lon="5.74895">
        <ele>212.84</ele>
        <time>2021-01-09T16:00:21Z</time>
      </trkpt>
      <trkpt lat="45.18773" lon="5.74906">
        <ele>213.739</ele>
        <time>2021-01-09T16:00:26Z</time>
      </trkpt>
      <trkpt lat="45.18773" lon="5.74915">
        <ele>214.278</ele>
        <time>2021-01-09T16:00:31Z</time>
      </trkpt>
      <trkpt lat="45.18773" lon="5.74926">
        <ele>215.23</ele>
        <time>2021-01-09T16:00:36Z</time>
      </trkpt>
      <trkpt lat="45.18773" lon="5.74937">
        <ele>216.81</ele>
        <time>2021-01-09T16:00:41Z</time>
      </trkpt>
      <trkpt lat="45.18772" lon="5.74947">
        <ele>217.233</ele>
        <time>2021-01-09T16:00:46Z</time>
      </trkpt>
      <trkpt lat="45.18771" lon="5.74957">
        <ele>217.152</ele>
        <time>2021-01-09T16:00:51Z</time>
      </trkpt>
      <trkpt lat="45.18769" lon="5.74968">
        <ele>218.006</ele>
        <time>2021-01-09T16:00:56Z</time>
      </trkpt>
      <trkpt lat="45.18769" lon="5.74978">
        <ele>216.228</ele>
        <time>2021-01-09T16:01:01Z</time>
      </trkpt>
      <trkpt lat="45.1877" lon="5.74989">
        <ele>216.733</ele>
        <time>2021-01-09T16:01:06Z</time>
      </trkpt>
      <trkpt lat="45.18766" lon="5.74997">
        <ele>214.116</ele>
        <time>2021-01-09T16:01:11Z</time>
      </trkpt>
      <trkpt lat="45.18766" lon="5.75007">
        <ele>216.402</ele>
        <time>2021-01-09T16:01:16Z</time>
      </trkpt>
      <trkpt lat="45.18766" lon="5.75018">
        <ele>216.676</ele>
        <time>2021-01-09T16:01:21Z</time>
      </trkpt>
      <trkpt lat="45.18766" lon="5.75029">
        <ele>216.511</ele>
        <time>2021-01-09T16:01:26Z</time>
      </trkpt>
      <trkpt lat="45.18765" lon="5.75039">
        <ele>216.939</ele>
        <time>2021-01-09T16:01:31Z</time>
      </trkpt>
      <trkpt lat="45.18763" lon="5.7505">
        <ele>216.908</ele>
        <time>2021-01-09T16:01:36Z</time>
      </trkpt>
      <trkpt lat="45.18762" lon="5.75061">
        <ele>213.714</ele>
        <time>2021-01-09T16:01:41Z</time>
      </trkpt>
      <trkpt lat="45.18761" lon="5.75072">
        <ele>213.985</ele>
        <time>2021-01-09T16:01:46Z</time>
      </trkpt>
      <trkpt lat="45.18761" lon="5.75083">
        <ele>215.034</ele>
        <time>2021-01-09T16:01:51Z</time>
      </trkpt>
      <trkpt lat="45.1876" lon="5.75093">
        <ele>215.074</ele>
        <time>2021-01-09T16:01:56Z</time>
      </trkpt>
      <trkpt lat="45.18761" lon="5.75103">
        <ele>215.789</ele>
        <time>2021-01-09T16:02:01Z</time>
      </trkpt>
      <trkpt lat="45.1876" lon="5.75113">
        <ele>216.409</ele>
        <time>2021-01-09T16:02:06Z</time>
      </trkpt>
      <trkpt lat="45.18759" lon="5.75124">
        <ele>216.598</ele>
        <time>2021-01-09T16:02:11Z</time>
      </trkpt>
      <trkpt lat="45.18759" lon="5.75135">
        <ele>217.103</ele>
        <time>2021-01-09T16:02:16Z</time>
      </trkpt>
      <trkpt lat="45.18758" lon="5.75145">
        <ele>217.31</ele>
        <time>2021-01-09T16:02:21Z</time>
      </trkpt>
      <trkpt lat="45.18757" lon="5.75156">
        <ele>216.992</ele>
        <time>2021-01-09T16:02:26Z</time>
      </trkpt>
      <trkpt lat="45.18756" lon="5.75165">
        <ele>214.762</ele>
        <time>2021-01-09T16:02:31Z</time>
      </trkpt>
      <trkpt lat="45.18755" lon="5.75176">
        <ele>214.394</ele>
        <time>2021-01-09T16:02:36Z</time>
      </trkpt>
      <trkpt lat="45.18755" lon="5.75186">
        <ele>215.202</ele>
        <time>2021-01-09T16:02:41Z</time>
      </trkpt>
      <trkpt lat="45.18753" lon="5.75197">
        <ele>214.894</ele>
        <time>2021-01-09T16:02:46Z</time>
      </trkpt>
      <trkpt lat="45.1875" lon="5.75208">
        <ele>215.232</ele>
        <time>2021-01-09T16:02:51Z</time>
      </trkpt>
      <trkpt lat="45.18743" lon="5.75212">
        <ele>214.725</ele>
        <time>2021-01-09T16:02:56Z</time>
      </trkpt>
      <trkpt lat="45.18736" lon="5.75216">
        <ele>214.242</ele>
        <time>2021-01-09T16:03:01Z</time>
      </trkpt>
      <trkpt lat="45.18729" lon="5.75219">
        <ele>213.016</ele>
        <time>2021-01-09T16:03:06Z</time>
      </trkpt>
      <trkpt lat="45.18723" lon="5.75224">
        <ele>213.73</ele>
        <time>2021-01-09T16:03:11Z</time>
      </trkpt>
      <trkpt lat="45.18717" lon="5.75231">
        <ele>215.659</ele>
        <time>2021-01-09T16:03:16Z</time>
      </trkpt>
    </trkseg>
  </trk>
</gpx>